<?xml version="1.0" encoding="UTF-8" standalone="no" ?>
<gpx xmlns="http://www.topografix.com/GPX/1/1" creator="www.cicloide.com" version="1.1" xmlns:xsi="http://www.w3.org/2001/XMLSchema-instance" xsi:schemaLocation="http://www.topografix.com/GPX/1/1 http://www.topografix.com/GPX/1/1/gpx.xsd">
  <trk>
    <name>www.cicloide.com 4740</name>
    <desc>www.cicloide.com 4740</desc>
    <trkseg>
      <trkpt lat="41.544688000" lon="1.886230000">
        <ele>104.70</ele>
        <time>2011-04-10T08:07:05Z</time>
      </trkpt>
      <trkpt lat="41.543446000" lon="1.886696000">
        <ele>105.10</ele>
        <time>2011-04-10T08:09:57Z</time>
      </trkpt>
      <trkpt lat="41.543554000" lon="1.886949000">
        <ele>104.40</ele>
        <time>2011-04-10T08:12:22Z</time>
      </trkpt>
      <trkpt lat="41.543929000" lon="1.887178000">
        <ele>105.10</ele>
        <time>2011-04-10T08:12:42Z</time>
      </trkpt>
      <trkpt lat="41.544589000" lon="1.887388000">
        <ele>107.40</ele>
        <time>2011-04-10T08:13:02Z</time>
      </trkpt>
      <trkpt lat="41.545000000" lon="1.887584000">
        <ele>112.00</ele>
        <time>2011-04-10T08:13:19Z</time>
      </trkpt>
      <trkpt lat="41.545747000" lon="1.887840000">
        <ele>119.00</ele>
        <time>2011-04-10T08:13:54Z</time>
      </trkpt>
      <trkpt lat="41.546140000" lon="1.887918000">
        <ele>120.10</ele>
        <time>2011-04-10T08:14:10Z</time>
      </trkpt>
      <trkpt lat="41.546305000" lon="1.888031000">
        <ele>120.60</ele>
        <time>2011-04-10T08:14:18Z</time>
      </trkpt>
      <trkpt lat="41.546506000" lon="1.888067000">
        <ele>121.40</ele>
        <time>2011-04-10T08:14:29Z</time>
      </trkpt>
      <trkpt lat="41.547046000" lon="1.888151000">
        <ele>127.50</ele>
        <time>2011-04-10T08:14:55Z</time>
      </trkpt>
      <trkpt lat="41.547440000" lon="1.888154000">
        <ele>132.50</ele>
        <time>2011-04-10T08:15:12Z</time>
      </trkpt>
      <trkpt lat="41.547621000" lon="1.888188000">
        <ele>134.30</ele>
        <time>2011-04-10T08:15:21Z</time>
      </trkpt>
      <trkpt lat="41.548379000" lon="1.887976000">
        <ele>141.40</ele>
        <time>2011-04-10T08:15:56Z</time>
      </trkpt>
      <trkpt lat="41.549684000" lon="1.887833000">
        <ele>148.00</ele>
        <time>2011-04-10T08:16:48Z</time>
      </trkpt>
      <trkpt lat="41.550256000" lon="1.887926000">
        <ele>151.00</ele>
        <time>2011-04-10T08:17:09Z</time>
      </trkpt>
      <trkpt lat="41.551515000" lon="1.888513000">
        <ele>157.80</ele>
        <time>2011-04-10T08:17:58Z</time>
      </trkpt>
      <trkpt lat="41.552042000" lon="1.888857000">
        <ele>159.90</ele>
        <time>2011-04-10T08:18:19Z</time>
      </trkpt>
      <trkpt lat="41.552218000" lon="1.888953000">
        <ele>162.10</ele>
        <time>2011-04-10T08:18:26Z</time>
      </trkpt>
      <trkpt lat="41.552753000" lon="1.889268000">
        <ele>164.90</ele>
        <time>2011-04-10T08:18:52Z</time>
      </trkpt>
      <trkpt lat="41.553666000" lon="1.889650000">
        <ele>170.30</ele>
        <time>2011-04-10T08:19:28Z</time>
      </trkpt>
      <trkpt lat="41.553824000" lon="1.889781000">
        <ele>171.40</ele>
        <time>2011-04-10T08:19:35Z</time>
      </trkpt>
      <trkpt lat="41.553978000" lon="1.890785000">
        <ele>171.20</ele>
        <time>2011-04-10T08:20:00Z</time>
      </trkpt>
      <trkpt lat="41.554960000" lon="1.890778000">
        <ele>177.60</ele>
        <time>2011-04-10T08:20:35Z</time>
      </trkpt>
      <trkpt lat="41.555557000" lon="1.890877000">
        <ele>181.30</ele>
        <time>2011-04-10T08:20:59Z</time>
      </trkpt>
      <trkpt lat="41.556528000" lon="1.890746000">
        <ele>187.60</ele>
        <time>2011-04-10T08:21:37Z</time>
      </trkpt>
      <trkpt lat="41.556673000" lon="1.890851000">
        <ele>189.50</ele>
        <time>2011-04-10T08:21:44Z</time>
      </trkpt>
      <trkpt lat="41.556668000" lon="1.891342000">
        <ele>188.50</ele>
        <time>2011-04-10T08:21:58Z</time>
      </trkpt>
      <trkpt lat="41.556681000" lon="1.891569000">
        <ele>189.90</ele>
        <time>2011-04-10T08:22:07Z</time>
      </trkpt>
      <trkpt lat="41.557255000" lon="1.891694000">
        <ele>193.80</ele>
        <time>2011-04-10T08:22:33Z</time>
      </trkpt>
      <trkpt lat="41.557794000" lon="1.891812000">
        <ele>199.90</ele>
        <time>2011-04-10T08:22:59Z</time>
      </trkpt>
      <trkpt lat="41.558097000" lon="1.892486000">
        <ele>204.70</ele>
        <time>2011-04-10T08:23:27Z</time>
      </trkpt>
      <trkpt lat="41.558347000" lon="1.892860000">
        <ele>209.80</ele>
        <time>2011-04-10T08:23:48Z</time>
      </trkpt>
      <trkpt lat="41.558515000" lon="1.892959000">
        <ele>212.80</ele>
        <time>2011-04-10T08:23:58Z</time>
      </trkpt>
      <trkpt lat="41.558690000" lon="1.892971000">
        <ele>215.00</ele>
        <time>2011-04-10T08:24:09Z</time>
      </trkpt>
      <trkpt lat="41.559054000" lon="1.892963000">
        <ele>218.30</ele>
        <time>2011-04-10T08:24:28Z</time>
      </trkpt>
      <trkpt lat="41.559410000" lon="1.893216000">
        <ele>220.50</ele>
        <time>2011-04-10T08:24:49Z</time>
      </trkpt>
      <trkpt lat="41.559577000" lon="1.893320000">
        <ele>224.10</ele>
        <time>2011-04-10T08:24:59Z</time>
      </trkpt>
      <trkpt lat="41.559759000" lon="1.893314000">
        <ele>227.40</ele>
        <time>2011-04-10T08:25:08Z</time>
      </trkpt>
      <trkpt lat="41.559926000" lon="1.893428000">
        <ele>231.30</ele>
        <time>2011-04-10T08:25:18Z</time>
      </trkpt>
      <trkpt lat="41.560011000" lon="1.893617000">
        <ele>233.30</ele>
        <time>2011-04-10T08:25:29Z</time>
      </trkpt>
      <trkpt lat="41.560178000" lon="1.894052000">
        <ele>235.10</ele>
        <time>2011-04-10T08:25:50Z</time>
      </trkpt>
      <trkpt lat="41.560376000" lon="1.894070000">
        <ele>235.40</ele>
        <time>2011-04-10T08:25:57Z</time>
      </trkpt>
      <trkpt lat="41.560502000" lon="1.893960000">
        <ele>236.10</ele>
        <time>2011-04-10T08:26:04Z</time>
      </trkpt>
      <trkpt lat="41.560540000" lon="1.893704000">
        <ele>237.20</ele>
        <time>2011-04-10T08:26:14Z</time>
      </trkpt>
      <trkpt lat="41.560827000" lon="1.893401000">
        <ele>242.60</ele>
        <time>2011-04-10T08:26:33Z</time>
      </trkpt>
      <trkpt lat="41.561015000" lon="1.893426000">
        <ele>245.10</ele>
        <time>2011-04-10T08:26:44Z</time>
      </trkpt>
      <trkpt lat="41.561234000" lon="1.893806000">
        <ele>251.30</ele>
        <time>2011-04-10T08:27:06Z</time>
      </trkpt>
      <trkpt lat="41.561381000" lon="1.893933000">
        <ele>255.70</ele>
        <time>2011-04-10T08:27:17Z</time>
      </trkpt>
      <trkpt lat="41.561522000" lon="1.893758000">
        <ele>259.60</ele>
        <time>2011-04-10T08:27:29Z</time>
      </trkpt>
      <trkpt lat="41.561648000" lon="1.893582000">
        <ele>262.10</ele>
        <time>2011-04-10T08:27:41Z</time>
      </trkpt>
      <trkpt lat="41.561841000" lon="1.893513000">
        <ele>266.60</ele>
        <time>2011-04-10T08:27:52Z</time>
      </trkpt>
      <trkpt lat="41.562031000" lon="1.893546000">
        <ele>269.80</ele>
        <time>2011-04-10T08:28:04Z</time>
      </trkpt>
      <trkpt lat="41.562226000" lon="1.893580000">
        <ele>270.00</ele>
        <time>2011-04-10T08:28:16Z</time>
      </trkpt>
      <trkpt lat="41.562405000" lon="1.893645000">
        <ele>272.40</ele>
        <time>2011-04-10T08:28:27Z</time>
      </trkpt>
      <trkpt lat="41.562723000" lon="1.893914000">
        <ele>273.90</ele>
        <time>2011-04-10T08:28:49Z</time>
      </trkpt>
      <trkpt lat="41.563053000" lon="1.894147000">
        <ele>277.00</ele>
        <time>2011-04-10T08:29:10Z</time>
      </trkpt>
      <trkpt lat="41.563221000" lon="1.893705000">
        <ele>280.30</ele>
        <time>2011-04-10T08:29:29Z</time>
      </trkpt>
      <trkpt lat="41.563397000" lon="1.893641000">
        <ele>281.20</ele>
        <time>2011-04-10T08:29:38Z</time>
      </trkpt>
      <trkpt lat="41.563515000" lon="1.893833000">
        <ele>278.80</ele>
        <time>2011-04-10T08:29:45Z</time>
      </trkpt>
      <trkpt lat="41.563774000" lon="1.894470000">
        <ele>280.10</ele>
        <time>2011-04-10T08:30:04Z</time>
      </trkpt>
      <trkpt lat="41.564222000" lon="1.893981000">
        <ele>286.40</ele>
        <time>2011-04-10T08:30:29Z</time>
      </trkpt>
      <trkpt lat="41.564398000" lon="1.894031000">
        <ele>290.70</ele>
        <time>2011-04-10T08:30:37Z</time>
      </trkpt>
      <trkpt lat="41.564574000" lon="1.894036000">
        <ele>293.10</ele>
        <time>2011-04-10T08:30:48Z</time>
      </trkpt>
      <trkpt lat="41.564730000" lon="1.893888000">
        <ele>295.90</ele>
        <time>2011-04-10T08:30:58Z</time>
      </trkpt>
      <trkpt lat="41.565428000" lon="1.894117000">
        <ele>301.80</ele>
        <time>2011-04-10T08:31:36Z</time>
      </trkpt>
      <trkpt lat="41.565508000" lon="1.893372000">
        <ele>305.80</ele>
        <time>2011-04-10T08:32:01Z</time>
      </trkpt>
      <trkpt lat="41.565387000" lon="1.892633000">
        <ele>307.70</ele>
        <time>2011-04-10T08:32:20Z</time>
      </trkpt>
      <trkpt lat="41.565499000" lon="1.892434000">
        <ele>307.40</ele>
        <time>2011-04-10T08:32:27Z</time>
      </trkpt>
      <trkpt lat="41.566067000" lon="1.892678000">
        <ele>305.50</ele>
        <time>2011-04-10T08:32:46Z</time>
      </trkpt>
      <trkpt lat="41.566262000" lon="1.892643000">
        <ele>307.50</ele>
        <time>2011-04-10T08:32:53Z</time>
      </trkpt>
      <trkpt lat="41.567022000" lon="1.892622000">
        <ele>309.90</ele>
        <time>2011-04-10T08:33:21Z</time>
      </trkpt>
      <trkpt lat="41.567386000" lon="1.892586000">
        <ele>309.70</ele>
        <time>2011-04-10T08:33:31Z</time>
      </trkpt>
      <trkpt lat="41.567972000" lon="1.892767000">
        <ele>310.40</ele>
        <time>2011-04-10T08:33:49Z</time>
      </trkpt>
      <trkpt lat="41.568304000" lon="1.892978000">
        <ele>311.50</ele>
        <time>2011-04-10T08:34:01Z</time>
      </trkpt>
      <trkpt lat="41.568421000" lon="1.893186000">
        <ele>313.20</ele>
        <time>2011-04-10T08:34:08Z</time>
      </trkpt>
      <trkpt lat="41.568473000" lon="1.893424000">
        <ele>311.40</ele>
        <time>2011-04-10T08:34:15Z</time>
      </trkpt>
      <trkpt lat="41.568532000" lon="1.893664000">
        <ele>313.40</ele>
        <time>2011-04-10T08:34:22Z</time>
      </trkpt>
      <trkpt lat="41.568688000" lon="1.893711000">
        <ele>313.90</ele>
        <time>2011-04-10T08:34:29Z</time>
      </trkpt>
      <trkpt lat="41.569085000" lon="1.893169000">
        <ele>317.10</ele>
        <time>2011-04-10T08:34:50Z</time>
      </trkpt>
      <trkpt lat="41.569252000" lon="1.893043000">
        <ele>319.40</ele>
        <time>2011-04-10T08:34:57Z</time>
      </trkpt>
      <trkpt lat="41.569426000" lon="1.892943000">
        <ele>318.90</ele>
        <time>2011-04-10T08:35:04Z</time>
      </trkpt>
      <trkpt lat="41.569628000" lon="1.892941000">
        <ele>320.30</ele>
        <time>2011-04-10T08:35:09Z</time>
      </trkpt>
      <trkpt lat="41.569992000" lon="1.893102000">
        <ele>320.40</ele>
        <time>2011-04-10T08:35:21Z</time>
      </trkpt>
      <trkpt lat="41.570126000" lon="1.893268000">
        <ele>320.70</ele>
        <time>2011-04-10T08:35:28Z</time>
      </trkpt>
      <trkpt lat="41.570300000" lon="1.893383000">
        <ele>321.80</ele>
        <time>2011-04-10T08:35:35Z</time>
      </trkpt>
      <trkpt lat="41.571408000" lon="1.893745000">
        <ele>327.50</ele>
        <time>2011-04-10T08:36:15Z</time>
      </trkpt>
      <trkpt lat="41.571909000" lon="1.894125000">
        <ele>330.30</ele>
        <time>2011-04-10T08:36:45Z</time>
      </trkpt>
      <trkpt lat="41.572015000" lon="1.894321000">
        <ele>331.50</ele>
        <time>2011-04-10T08:36:52Z</time>
      </trkpt>
      <trkpt lat="41.572123000" lon="1.894546000">
        <ele>329.70</ele>
        <time>2011-04-10T08:36:59Z</time>
      </trkpt>
      <trkpt lat="41.572180000" lon="1.894781000">
        <ele>332.10</ele>
        <time>2011-04-10T08:37:06Z</time>
      </trkpt>
      <trkpt lat="41.572211000" lon="1.895044000">
        <ele>330.50</ele>
        <time>2011-04-10T08:37:13Z</time>
      </trkpt>
      <trkpt lat="41.572350000" lon="1.895060000">
        <ele>329.70</ele>
        <time>2011-04-10T08:37:18Z</time>
      </trkpt>
      <trkpt lat="41.572467000" lon="1.894840000">
        <ele>329.20</ele>
        <time>2011-04-10T08:37:23Z</time>
      </trkpt>
      <trkpt lat="41.572765000" lon="1.894579000">
        <ele>327.80</ele>
        <time>2011-04-10T08:37:32Z</time>
      </trkpt>
      <trkpt lat="41.572536000" lon="1.893833000">
        <ele>336.00</ele>
        <time>2011-04-10T08:37:49Z</time>
      </trkpt>
      <trkpt lat="41.572509000" lon="1.893292000">
        <ele>337.00</ele>
        <time>2011-04-10T08:38:03Z</time>
      </trkpt>
      <trkpt lat="41.572568000" lon="1.893038000">
        <ele>336.90</ele>
        <time>2011-04-10T08:38:10Z</time>
      </trkpt>
      <trkpt lat="41.572634000" lon="1.892533000">
        <ele>341.20</ele>
        <time>2011-04-10T08:38:26Z</time>
      </trkpt>
      <trkpt lat="41.572733000" lon="1.892317000">
        <ele>343.10</ele>
        <time>2011-04-10T08:38:33Z</time>
      </trkpt>
      <trkpt lat="41.572888000" lon="1.892160000">
        <ele>342.80</ele>
        <time>2011-04-10T08:38:43Z</time>
      </trkpt>
      <trkpt lat="41.572974000" lon="1.891945000">
        <ele>344.50</ele>
        <time>2011-04-10T08:38:50Z</time>
      </trkpt>
      <trkpt lat="41.572997000" lon="1.891702000">
        <ele>347.60</ele>
        <time>2011-04-10T08:38:59Z</time>
      </trkpt>
      <trkpt lat="41.572449000" lon="1.891508000">
        <ele>356.30</ele>
        <time>2011-04-10T08:39:30Z</time>
      </trkpt>
      <trkpt lat="41.572255000" lon="1.891462000">
        <ele>360.50</ele>
        <time>2011-04-10T08:39:41Z</time>
      </trkpt>
      <trkpt lat="41.572123000" lon="1.891305000">
        <ele>364.10</ele>
        <time>2011-04-10T08:39:51Z</time>
      </trkpt>
      <trkpt lat="41.572027000" lon="1.890825000">
        <ele>367.80</ele>
        <time>2011-04-10T08:40:12Z</time>
      </trkpt>
      <trkpt lat="41.571971000" lon="1.890620000">
        <ele>372.00</ele>
        <time>2011-04-10T08:40:24Z</time>
      </trkpt>
      <trkpt lat="41.572255000" lon="1.890954000">
        <ele>375.20</ele>
        <time>2011-04-10T08:40:47Z</time>
      </trkpt>
      <trkpt lat="41.572399000" lon="1.891113000">
        <ele>375.90</ele>
        <time>2011-04-10T08:40:57Z</time>
      </trkpt>
      <trkpt lat="41.572590000" lon="1.891135000">
        <ele>377.10</ele>
        <time>2011-04-10T08:41:08Z</time>
      </trkpt>
      <trkpt lat="41.572783000" lon="1.891174000">
        <ele>375.80</ele>
        <time>2011-04-10T08:41:17Z</time>
      </trkpt>
      <trkpt lat="41.573150000" lon="1.891072000">
        <ele>372.90</ele>
        <time>2011-04-10T08:41:27Z</time>
      </trkpt>
      <trkpt lat="41.573341000" lon="1.891122000">
        <ele>376.70</ele>
        <time>2011-04-10T08:41:34Z</time>
      </trkpt>
      <trkpt lat="41.573515000" lon="1.891076000">
        <ele>377.70</ele>
        <time>2011-04-10T08:41:43Z</time>
      </trkpt>
      <trkpt lat="41.573660000" lon="1.890970000">
        <ele>380.80</ele>
        <time>2011-04-10T08:41:51Z</time>
      </trkpt>
      <trkpt lat="41.573742000" lon="1.890738000">
        <ele>385.50</ele>
        <time>2011-04-10T08:42:02Z</time>
      </trkpt>
      <trkpt lat="41.573859000" lon="1.890767000">
        <ele>384.00</ele>
        <time>2011-04-10T08:42:14Z</time>
      </trkpt>
      <trkpt lat="41.573867000" lon="1.891013000">
        <ele>387.50</ele>
        <time>2011-04-10T08:42:26Z</time>
      </trkpt>
      <trkpt lat="41.573861000" lon="1.891266000">
        <ele>387.10</ele>
        <time>2011-04-10T08:42:38Z</time>
      </trkpt>
      <trkpt lat="41.573847000" lon="1.892045000">
        <ele>392.00</ele>
        <time>2011-04-10T08:43:10Z</time>
      </trkpt>
      <trkpt lat="41.573870000" lon="1.892307000">
        <ele>392.90</ele>
        <time>2011-04-10T08:43:20Z</time>
      </trkpt>
      <trkpt lat="41.573473000" lon="1.893178000">
        <ele>396.30</ele>
        <time>2011-04-10T08:43:50Z</time>
      </trkpt>
      <trkpt lat="41.573477000" lon="1.893411000">
        <ele>395.40</ele>
        <time>2011-04-10T08:43:59Z</time>
      </trkpt>
      <trkpt lat="41.573671000" lon="1.893842000">
        <ele>393.80</ele>
        <time>2011-04-10T08:44:11Z</time>
      </trkpt>
      <trkpt lat="41.573784000" lon="1.894097000">
        <ele>394.70</ele>
        <time>2011-04-10T08:44:16Z</time>
      </trkpt>
      <trkpt lat="41.573887000" lon="1.894392000">
        <ele>391.30</ele>
        <time>2011-04-10T08:44:19Z</time>
      </trkpt>
      <trkpt lat="41.574270000" lon="1.895302000">
        <ele>392.80</ele>
        <time>2011-04-10T08:44:35Z</time>
      </trkpt>
      <trkpt lat="41.574352000" lon="1.895532000">
        <ele>393.40</ele>
        <time>2011-04-10T08:44:40Z</time>
      </trkpt>
      <trkpt lat="41.574397000" lon="1.895784000">
        <ele>394.90</ele>
        <time>2011-04-10T08:44:47Z</time>
      </trkpt>
      <trkpt lat="41.574497000" lon="1.895977000">
        <ele>396.80</ele>
        <time>2011-04-10T08:44:54Z</time>
      </trkpt>
      <trkpt lat="41.574759000" lon="1.896300000">
        <ele>401.70</ele>
        <time>2011-04-10T08:45:13Z</time>
      </trkpt>
      <trkpt lat="41.575132000" lon="1.896374000">
        <ele>407.70</ele>
        <time>2011-04-10T08:45:36Z</time>
      </trkpt>
      <trkpt lat="41.575856000" lon="1.896404000">
        <ele>414.40</ele>
        <time>2011-04-10T08:46:21Z</time>
      </trkpt>
      <trkpt lat="41.576222000" lon="1.896552000">
        <ele>419.80</ele>
        <time>2011-04-10T08:46:44Z</time>
      </trkpt>
      <trkpt lat="41.576590000" lon="1.896587000">
        <ele>420.50</ele>
        <time>2011-04-10T08:47:07Z</time>
      </trkpt>
      <trkpt lat="41.576754000" lon="1.896735000">
        <ele>421.30</ele>
        <time>2011-04-10T08:47:19Z</time>
      </trkpt>
      <trkpt lat="41.576864000" lon="1.896935000">
        <ele>422.70</ele>
        <time>2011-04-10T08:47:29Z</time>
      </trkpt>
      <trkpt lat="41.577178000" lon="1.897536000">
        <ele>428.20</ele>
        <time>2011-04-10T08:48:01Z</time>
      </trkpt>
      <trkpt lat="41.577096000" lon="1.897992000">
        <ele>430.50</ele>
        <time>2011-04-10T08:48:20Z</time>
      </trkpt>
      <trkpt lat="41.576989000" lon="1.898723000">
        <ele>437.40</ele>
        <time>2011-04-10T08:48:51Z</time>
      </trkpt>
      <trkpt lat="41.576850000" lon="1.898697000">
        <ele>437.00</ele>
        <time>2011-04-10T08:49:03Z</time>
      </trkpt>
      <trkpt lat="41.576693000" lon="1.898663000">
        <ele>439.10</ele>
        <time>2011-04-10T08:51:30Z</time>
      </trkpt>
      <trkpt lat="41.576879000" lon="1.898747000">
        <ele>437.50</ele>
        <time>2011-04-10T08:51:42Z</time>
      </trkpt>
      <trkpt lat="41.577027000" lon="1.898861000">
        <ele>437.40</ele>
        <time>2011-04-10T08:53:47Z</time>
      </trkpt>
      <trkpt lat="41.577203000" lon="1.898851000">
        <ele>438.00</ele>
        <time>2011-04-10T08:53:56Z</time>
      </trkpt>
      <trkpt lat="41.577524000" lon="1.898555000">
        <ele>440.00</ele>
        <time>2011-04-10T08:54:15Z</time>
      </trkpt>
      <trkpt lat="41.577694000" lon="1.898581000">
        <ele>443.30</ele>
        <time>2011-04-10T08:54:36Z</time>
      </trkpt>
      <trkpt lat="41.577832000" lon="1.898422000">
        <ele>445.00</ele>
        <time>2011-04-10T08:54:57Z</time>
      </trkpt>
      <trkpt lat="41.577840000" lon="1.897880000">
        <ele>443.30</ele>
        <time>2011-04-10T08:55:11Z</time>
      </trkpt>
      <trkpt lat="41.577949000" lon="1.897661000">
        <ele>442.10</ele>
        <time>2011-04-10T08:55:16Z</time>
      </trkpt>
      <trkpt lat="41.578333000" lon="1.897554000">
        <ele>445.10</ele>
        <time>2011-04-10T08:55:32Z</time>
      </trkpt>
      <trkpt lat="41.578365000" lon="1.897319000">
        <ele>445.70</ele>
        <time>2011-04-10T08:55:42Z</time>
      </trkpt>
      <trkpt lat="41.578306000" lon="1.896846000">
        <ele>453.70</ele>
        <time>2011-04-10T08:56:38Z</time>
      </trkpt>
      <trkpt lat="41.578377000" lon="1.896623000">
        <ele>457.00</ele>
        <time>2011-04-10T08:56:57Z</time>
      </trkpt>
      <trkpt lat="41.578483000" lon="1.896441000">
        <ele>461.80</ele>
        <time>2011-04-10T08:57:15Z</time>
      </trkpt>
      <trkpt lat="41.578629000" lon="1.896377000">
        <ele>466.50</ele>
        <time>2011-04-10T08:57:39Z</time>
      </trkpt>
      <trkpt lat="41.579104000" lon="1.896023000">
        <ele>471.50</ele>
        <time>2011-04-10T08:58:42Z</time>
      </trkpt>
      <trkpt lat="41.579390000" lon="1.895758000">
        <ele>479.10</ele>
        <time>2011-04-10T08:59:34Z</time>
      </trkpt>
      <trkpt lat="41.579541000" lon="1.895795000">
        <ele>477.00</ele>
        <time>2011-04-10T09:00:49Z</time>
      </trkpt>
      <trkpt lat="41.579557000" lon="1.896029000">
        <ele>471.40</ele>
        <time>2011-04-10T09:01:17Z</time>
      </trkpt>
      <trkpt lat="41.579640000" lon="1.895854000">
        <ele>467.30</ele>
        <time>2011-04-10T09:01:48Z</time>
      </trkpt>
      <trkpt lat="41.579699000" lon="1.895357000">
        <ele>459.40</ele>
        <time>2011-04-10T09:02:21Z</time>
      </trkpt>
      <trkpt lat="41.579601000" lon="1.895111000">
        <ele>460.40</ele>
        <time>2011-04-10T09:02:28Z</time>
      </trkpt>
      <trkpt lat="41.579772000" lon="1.894606000">
        <ele>458.90</ele>
        <time>2011-04-10T09:02:39Z</time>
      </trkpt>
      <trkpt lat="41.579787000" lon="1.893832000">
        <ele>454.10</ele>
        <time>2011-04-10T09:02:54Z</time>
      </trkpt>
      <trkpt lat="41.579762000" lon="1.893586000">
        <ele>454.00</ele>
        <time>2011-04-10T09:02:59Z</time>
      </trkpt>
      <trkpt lat="41.579761000" lon="1.893340000">
        <ele>451.50</ele>
        <time>2011-04-10T09:03:05Z</time>
      </trkpt>
      <trkpt lat="41.579987000" lon="1.892641000">
        <ele>443.80</ele>
        <time>2011-04-10T09:03:22Z</time>
      </trkpt>
      <trkpt lat="41.580188000" lon="1.892218000">
        <ele>442.80</ele>
        <time>2011-04-10T09:03:33Z</time>
      </trkpt>
      <trkpt lat="41.580222000" lon="1.892025000">
        <ele>440.90</ele>
        <time>2011-04-10T09:04:27Z</time>
      </trkpt>
      <trkpt lat="41.580363000" lon="1.891519000">
        <ele>430.60</ele>
        <time>2011-04-10T09:04:41Z</time>
      </trkpt>
      <trkpt lat="41.580596000" lon="1.891270000">
        <ele>432.90</ele>
        <time>2011-04-10T09:05:59Z</time>
      </trkpt>
      <trkpt lat="41.580659000" lon="1.891078000">
        <ele>438.30</ele>
        <time>2011-04-10T09:07:38Z</time>
      </trkpt>
      <trkpt lat="41.580811000" lon="1.891038000">
        <ele>436.50</ele>
        <time>2011-04-10T09:09:30Z</time>
      </trkpt>
      <trkpt lat="41.581295000" lon="1.891426000">
        <ele>416.20</ele>
        <time>2011-04-10T09:11:37Z</time>
      </trkpt>
      <trkpt lat="41.581597000" lon="1.891677000">
        <ele>408.40</ele>
        <time>2011-04-10T09:12:05Z</time>
      </trkpt>
      <trkpt lat="41.582146000" lon="1.891854000">
        <ele>396.90</ele>
        <time>2011-04-10T09:14:10Z</time>
      </trkpt>
      <trkpt lat="41.582535000" lon="1.891992000">
        <ele>390.80</ele>
        <time>2011-04-10T09:14:38Z</time>
      </trkpt>
      <trkpt lat="41.582665000" lon="1.892123000">
        <ele>387.90</ele>
        <time>2011-04-10T09:15:04Z</time>
      </trkpt>
      <trkpt lat="41.582976000" lon="1.892346000">
        <ele>385.70</ele>
        <time>2011-04-10T09:15:27Z</time>
      </trkpt>
      <trkpt lat="41.583190000" lon="1.892608000">
        <ele>388.50</ele>
        <time>2011-04-10T09:16:35Z</time>
      </trkpt>
      <trkpt lat="41.583361000" lon="1.892712000">
        <ele>386.80</ele>
        <time>2011-04-10T09:17:34Z</time>
      </trkpt>
      <trkpt lat="41.583533000" lon="1.892831000">
        <ele>383.40</ele>
        <time>2011-04-10T09:17:43Z</time>
      </trkpt>
      <trkpt lat="41.583898000" lon="1.892940000">
        <ele>376.30</ele>
        <time>2011-04-10T09:17:58Z</time>
      </trkpt>
      <trkpt lat="41.584257000" lon="1.892811000">
        <ele>366.00</ele>
        <time>2011-04-10T09:18:45Z</time>
      </trkpt>
      <trkpt lat="41.584631000" lon="1.892918000">
        <ele>360.40</ele>
        <time>2011-04-10T09:19:01Z</time>
      </trkpt>
      <trkpt lat="41.585640000" lon="1.893701000">
        <ele>349.30</ele>
        <time>2011-04-10T09:19:50Z</time>
      </trkpt>
      <trkpt lat="41.585819000" lon="1.893808000">
        <ele>347.10</ele>
        <time>2011-04-10T09:19:57Z</time>
      </trkpt>
      <trkpt lat="41.586691000" lon="1.894228000">
        <ele>336.50</ele>
        <time>2011-04-10T09:20:33Z</time>
      </trkpt>
      <trkpt lat="41.587232000" lon="1.894307000">
        <ele>325.70</ele>
        <time>2011-04-10T09:21:05Z</time>
      </trkpt>
      <trkpt lat="41.587425000" lon="1.894407000">
        <ele>323.20</ele>
        <time>2011-04-10T09:21:12Z</time>
      </trkpt>
      <trkpt lat="41.587648000" lon="1.894812000">
        <ele>318.60</ele>
        <time>2011-04-10T09:21:26Z</time>
      </trkpt>
      <trkpt lat="41.587802000" lon="1.894814000">
        <ele>318.40</ele>
        <time>2011-04-10T09:23:05Z</time>
      </trkpt>
      <trkpt lat="41.587878000" lon="1.894575000">
        <ele>318.50</ele>
        <time>2011-04-10T09:23:15Z</time>
      </trkpt>
      <trkpt lat="41.588006000" lon="1.894078000">
        <ele>321.00</ele>
        <time>2011-04-10T09:23:33Z</time>
      </trkpt>
      <trkpt lat="41.588327000" lon="1.893877000">
        <ele>318.50</ele>
        <time>2011-04-10T09:23:47Z</time>
      </trkpt>
      <trkpt lat="41.588330000" lon="1.893632000">
        <ele>317.60</ele>
        <time>2011-04-10T09:23:52Z</time>
      </trkpt>
      <trkpt lat="41.588273000" lon="1.893377000">
        <ele>317.10</ele>
        <time>2011-04-10T09:23:57Z</time>
      </trkpt>
      <trkpt lat="41.588058000" lon="1.892650000">
        <ele>318.00</ele>
        <time>2011-04-10T09:24:13Z</time>
      </trkpt>
      <trkpt lat="41.587706000" lon="1.892494000">
        <ele>320.30</ele>
        <time>2011-04-10T09:24:25Z</time>
      </trkpt>
      <trkpt lat="41.587340000" lon="1.892384000">
        <ele>324.90</ele>
        <time>2011-04-10T09:24:39Z</time>
      </trkpt>
      <trkpt lat="41.587228000" lon="1.892188000">
        <ele>325.30</ele>
        <time>2011-04-10T09:24:46Z</time>
      </trkpt>
      <trkpt lat="41.587130000" lon="1.891970000">
        <ele>325.00</ele>
        <time>2011-04-10T09:24:53Z</time>
      </trkpt>
      <trkpt lat="41.586967000" lon="1.891858000">
        <ele>325.30</ele>
        <time>2011-04-10T09:24:58Z</time>
      </trkpt>
      <trkpt lat="41.586985000" lon="1.891754000">
        <ele>323.00</ele>
        <time>2011-04-10T09:25:16Z</time>
      </trkpt>
      <trkpt lat="41.587181000" lon="1.891652000">
        <ele>321.10</ele>
        <time>2011-04-10T09:25:19Z</time>
      </trkpt>
      <trkpt lat="41.587369000" lon="1.891597000">
        <ele>325.80</ele>
        <time>2011-04-10T09:25:28Z</time>
      </trkpt>
      <trkpt lat="41.587445000" lon="1.891481000">
        <ele>328.90</ele>
        <time>2011-04-10T09:25:40Z</time>
      </trkpt>
      <trkpt lat="41.587437000" lon="1.891245000">
        <ele>329.40</ele>
        <time>2011-04-10T09:25:49Z</time>
      </trkpt>
      <trkpt lat="41.587361000" lon="1.891016000">
        <ele>330.70</ele>
        <time>2011-04-10T09:25:59Z</time>
      </trkpt>
      <trkpt lat="41.587206000" lon="1.890562000">
        <ele>336.50</ele>
        <time>2011-04-10T09:26:23Z</time>
      </trkpt>
      <trkpt lat="41.586986000" lon="1.889868000">
        <ele>350.20</ele>
        <time>2011-04-10T09:27:02Z</time>
      </trkpt>
      <trkpt lat="41.587107000" lon="1.889695000">
        <ele>354.80</ele>
        <time>2011-04-10T09:27:16Z</time>
      </trkpt>
      <trkpt lat="41.588046000" lon="1.889478000">
        <ele>364.80</ele>
        <time>2011-04-10T09:28:15Z</time>
      </trkpt>
      <trkpt lat="41.588724000" lon="1.888992000">
        <ele>369.80</ele>
        <time>2011-04-10T09:28:55Z</time>
      </trkpt>
      <trkpt lat="41.589105000" lon="1.888971000">
        <ele>370.40</ele>
        <time>2011-04-10T09:29:11Z</time>
      </trkpt>
      <trkpt lat="41.589478000" lon="1.889151000">
        <ele>371.30</ele>
        <time>2011-04-10T09:29:26Z</time>
      </trkpt>
      <trkpt lat="41.590231000" lon="1.889492000">
        <ele>369.00</ele>
        <time>2011-04-10T09:29:46Z</time>
      </trkpt>
      <trkpt lat="41.590777000" lon="1.889747000">
        <ele>368.30</ele>
        <time>2011-04-10T09:30:01Z</time>
      </trkpt>
      <trkpt lat="41.590937000" lon="1.889886000">
        <ele>368.10</ele>
        <time>2011-04-10T09:30:06Z</time>
      </trkpt>
      <trkpt lat="41.591048000" lon="1.890375000">
        <ele>368.50</ele>
        <time>2011-04-10T09:30:17Z</time>
      </trkpt>
      <trkpt lat="41.591235000" lon="1.890401000">
        <ele>367.40</ele>
        <time>2011-04-10T09:30:24Z</time>
      </trkpt>
      <trkpt lat="41.591796000" lon="1.890006000">
        <ele>359.80</ele>
        <time>2011-04-10T09:30:38Z</time>
      </trkpt>
      <trkpt lat="41.591976000" lon="1.889929000">
        <ele>359.60</ele>
        <time>2011-04-10T09:30:41Z</time>
      </trkpt>
      <trkpt lat="41.592212000" lon="1.889905000">
        <ele>358.70</ele>
        <time>2011-04-10T09:30:45Z</time>
      </trkpt>
      <trkpt lat="41.592636000" lon="1.890041000">
        <ele>359.20</ele>
        <time>2011-04-10T09:30:52Z</time>
      </trkpt>
      <trkpt lat="41.593056000" lon="1.889953000">
        <ele>357.00</ele>
        <time>2011-04-10T09:31:00Z</time>
      </trkpt>
      <trkpt lat="41.593362000" lon="1.889572000">
        <ele>355.60</ele>
        <time>2011-04-10T09:31:09Z</time>
      </trkpt>
      <trkpt lat="41.593759000" lon="1.889010000">
        <ele>351.40</ele>
        <time>2011-04-10T09:31:28Z</time>
      </trkpt>
      <trkpt lat="41.594477000" lon="1.888678000">
        <ele>337.90</ele>
        <time>2011-04-10T09:32:03Z</time>
      </trkpt>
      <trkpt lat="41.594634000" lon="1.888561000">
        <ele>334.10</ele>
        <time>2011-04-10T09:32:21Z</time>
      </trkpt>
      <trkpt lat="41.594939000" lon="1.888224000">
        <ele>328.90</ele>
        <time>2011-04-10T09:32:38Z</time>
      </trkpt>
      <trkpt lat="41.595087000" lon="1.888251000">
        <ele>323.50</ele>
        <time>2011-04-10T09:33:09Z</time>
      </trkpt>
      <trkpt lat="41.595265000" lon="1.888170000">
        <ele>320.90</ele>
        <time>2011-04-10T09:33:20Z</time>
      </trkpt>
      <trkpt lat="41.595413000" lon="1.888037000">
        <ele>318.10</ele>
        <time>2011-04-10T09:34:05Z</time>
      </trkpt>
      <trkpt lat="41.595663000" lon="1.887814000">
        <ele>315.90</ele>
        <time>2011-04-10T09:34:40Z</time>
      </trkpt>
      <trkpt lat="41.595765000" lon="1.887995000">
        <ele>318.00</ele>
        <time>2011-04-10T09:34:54Z</time>
      </trkpt>
      <trkpt lat="41.595962000" lon="1.888097000">
        <ele>318.70</ele>
        <time>2011-04-10T09:35:03Z</time>
      </trkpt>
      <trkpt lat="41.596143000" lon="1.888059000">
        <ele>317.70</ele>
        <time>2011-04-10T09:35:06Z</time>
      </trkpt>
      <trkpt lat="41.596325000" lon="1.888115000">
        <ele>315.10</ele>
        <time>2011-04-10T09:35:11Z</time>
      </trkpt>
      <trkpt lat="41.596528000" lon="1.888269000">
        <ele>312.60</ele>
        <time>2011-04-10T09:35:15Z</time>
      </trkpt>
      <trkpt lat="41.596844000" lon="1.888606000">
        <ele>310.70</ele>
        <time>2011-04-10T09:35:24Z</time>
      </trkpt>
      <trkpt lat="41.597182000" lon="1.888899000">
        <ele>306.80</ele>
        <time>2011-04-10T09:35:32Z</time>
      </trkpt>
      <trkpt lat="41.597372000" lon="1.888902000">
        <ele>305.20</ele>
        <time>2011-04-10T09:35:37Z</time>
      </trkpt>
      <trkpt lat="41.597780000" lon="1.888941000">
        <ele>297.30</ele>
        <time>2011-04-10T09:35:58Z</time>
      </trkpt>
      <trkpt lat="41.597733000" lon="1.889097000">
        <ele>294.50</ele>
        <time>2011-04-10T09:36:07Z</time>
      </trkpt>
      <trkpt lat="41.597560000" lon="1.889203000">
        <ele>290.60</ele>
        <time>2011-04-10T09:37:06Z</time>
      </trkpt>
      <trkpt lat="41.597366000" lon="1.889295000">
        <ele>287.30</ele>
        <time>2011-04-10T09:37:15Z</time>
      </trkpt>
      <trkpt lat="41.597471000" lon="1.889428000">
        <ele>286.00</ele>
        <time>2011-04-10T09:37:48Z</time>
      </trkpt>
      <trkpt lat="41.597857000" lon="1.889548000">
        <ele>285.20</ele>
        <time>2011-04-10T09:38:02Z</time>
      </trkpt>
      <trkpt lat="41.598421000" lon="1.889871000">
        <ele>283.70</ele>
        <time>2011-04-10T09:38:16Z</time>
      </trkpt>
      <trkpt lat="41.598989000" lon="1.890213000">
        <ele>280.70</ele>
        <time>2011-04-10T09:38:32Z</time>
      </trkpt>
      <trkpt lat="41.599368000" lon="1.890258000">
        <ele>278.40</ele>
        <time>2011-04-10T09:38:40Z</time>
      </trkpt>
      <trkpt lat="41.599752000" lon="1.890258000">
        <ele>277.40</ele>
        <time>2011-04-10T09:38:47Z</time>
      </trkpt>
      <trkpt lat="41.600331000" lon="1.890063000">
        <ele>275.40</ele>
        <time>2011-04-10T09:38:59Z</time>
      </trkpt>
      <trkpt lat="41.600688000" lon="1.889757000">
        <ele>272.20</ele>
        <time>2011-04-10T09:39:08Z</time>
      </trkpt>
      <trkpt lat="41.600860000" lon="1.889713000">
        <ele>268.60</ele>
        <time>2011-04-10T09:39:12Z</time>
      </trkpt>
      <trkpt lat="41.600777000" lon="1.890197000">
        <ele>266.90</ele>
        <time>2011-04-10T09:39:20Z</time>
      </trkpt>
      <trkpt lat="41.600236000" lon="1.890519000">
        <ele>265.90</ele>
        <time>2011-04-10T09:39:34Z</time>
      </trkpt>
      <trkpt lat="41.600032000" lon="1.890630000">
        <ele>263.00</ele>
        <time>2011-04-10T09:39:38Z</time>
      </trkpt>
      <trkpt lat="41.599920000" lon="1.890865000">
        <ele>260.90</ele>
        <time>2011-04-10T09:39:41Z</time>
      </trkpt>
      <trkpt lat="41.599970000" lon="1.891079000">
        <ele>259.40</ele>
        <time>2011-04-10T09:39:45Z</time>
      </trkpt>
      <trkpt lat="41.600304000" lon="1.891330000">
        <ele>257.10</ele>
        <time>2011-04-10T09:39:55Z</time>
      </trkpt>
      <trkpt lat="41.600284000" lon="1.891727000">
        <ele>257.70</ele>
        <time>2011-04-10T09:40:35Z</time>
      </trkpt>
      <trkpt lat="41.600461000" lon="1.891615000">
        <ele>256.80</ele>
        <time>2011-04-10T09:40:41Z</time>
      </trkpt>
      <trkpt lat="41.600627000" lon="1.891737000">
        <ele>255.80</ele>
        <time>2011-04-10T09:40:44Z</time>
      </trkpt>
      <trkpt lat="41.600734000" lon="1.891964000">
        <ele>255.60</ele>
        <time>2011-04-10T09:40:49Z</time>
      </trkpt>
      <trkpt lat="41.600797000" lon="1.893210000">
        <ele>260.50</ele>
        <time>2011-04-10T09:41:19Z</time>
      </trkpt>
      <trkpt lat="41.600975000" lon="1.893930000">
        <ele>264.10</ele>
        <time>2011-04-10T09:41:40Z</time>
      </trkpt>
      <trkpt lat="41.601146000" lon="1.894390000">
        <ele>269.40</ele>
        <time>2011-04-10T09:41:55Z</time>
      </trkpt>
      <trkpt lat="41.601235000" lon="1.894626000">
        <ele>270.20</ele>
        <time>2011-04-10T09:42:04Z</time>
      </trkpt>
      <trkpt lat="41.601397000" lon="1.894677000">
        <ele>270.60</ele>
        <time>2011-04-10T09:42:11Z</time>
      </trkpt>
      <trkpt lat="41.601771000" lon="1.894447000">
        <ele>276.70</ele>
        <time>2011-04-10T09:42:27Z</time>
      </trkpt>
      <trkpt lat="41.601948000" lon="1.894491000">
        <ele>279.10</ele>
        <time>2011-04-10T09:42:36Z</time>
      </trkpt>
      <trkpt lat="41.602334000" lon="1.895406000">
        <ele>285.00</ele>
        <time>2011-04-10T09:43:05Z</time>
      </trkpt>
      <trkpt lat="41.602510000" lon="1.895537000">
        <ele>286.30</ele>
        <time>2011-04-10T09:43:12Z</time>
      </trkpt>
      <trkpt lat="41.602820000" lon="1.895775000">
        <ele>287.20</ele>
        <time>2011-04-10T09:43:24Z</time>
      </trkpt>
      <trkpt lat="41.602942000" lon="1.896017000">
        <ele>286.70</ele>
        <time>2011-04-10T09:43:31Z</time>
      </trkpt>
      <trkpt lat="41.603091000" lon="1.896815000">
        <ele>285.00</ele>
        <time>2011-04-10T09:43:42Z</time>
      </trkpt>
      <trkpt lat="41.602998000" lon="1.897065000">
        <ele>286.60</ele>
        <time>2011-04-10T09:43:47Z</time>
      </trkpt>
      <trkpt lat="41.602062000" lon="1.897557000">
        <ele>293.20</ele>
        <time>2011-04-10T09:44:22Z</time>
      </trkpt>
      <trkpt lat="41.601558000" lon="1.897934000">
        <ele>297.80</ele>
        <time>2011-04-10T09:44:41Z</time>
      </trkpt>
      <trkpt lat="41.601408000" lon="1.898084000">
        <ele>299.20</ele>
        <time>2011-04-10T09:44:48Z</time>
      </trkpt>
      <trkpt lat="41.601262000" lon="1.898259000">
        <ele>300.20</ele>
        <time>2011-04-10T09:44:53Z</time>
      </trkpt>
      <trkpt lat="41.601056000" lon="1.898656000">
        <ele>301.80</ele>
        <time>2011-04-10T09:45:05Z</time>
      </trkpt>
      <trkpt lat="41.600717000" lon="1.898609000">
        <ele>306.00</ele>
        <time>2011-04-10T09:45:21Z</time>
      </trkpt>
      <trkpt lat="41.600469000" lon="1.899006000">
        <ele>304.90</ele>
        <time>2011-04-10T09:45:33Z</time>
      </trkpt>
      <trkpt lat="41.600266000" lon="1.899087000">
        <ele>305.30</ele>
        <time>2011-04-10T09:45:38Z</time>
      </trkpt>
      <trkpt lat="41.599978000" lon="1.899375000">
        <ele>304.10</ele>
        <time>2011-04-10T09:45:51Z</time>
      </trkpt>
      <trkpt lat="41.599821000" lon="1.899505000">
        <ele>301.90</ele>
        <time>2011-04-10T09:45:56Z</time>
      </trkpt>
      <trkpt lat="41.599522000" lon="1.900128000">
        <ele>298.20</ele>
        <time>2011-04-10T09:46:08Z</time>
      </trkpt>
      <trkpt lat="41.599332000" lon="1.900568000">
        <ele>295.90</ele>
        <time>2011-04-10T09:46:17Z</time>
      </trkpt>
      <trkpt lat="41.599458000" lon="1.900736000">
        <ele>295.60</ele>
        <time>2011-04-10T09:46:20Z</time>
      </trkpt>
      <trkpt lat="41.599473000" lon="1.900979000">
        <ele>296.20</ele>
        <time>2011-04-10T09:46:24Z</time>
      </trkpt>
      <trkpt lat="41.599332000" lon="1.901133000">
        <ele>295.70</ele>
        <time>2011-04-10T09:46:29Z</time>
      </trkpt>
      <trkpt lat="41.599134000" lon="1.901163000">
        <ele>296.10</ele>
        <time>2011-04-10T09:46:34Z</time>
      </trkpt>
      <trkpt lat="41.598746000" lon="1.900545000">
        <ele>294.50</ele>
        <time>2011-04-10T09:46:48Z</time>
      </trkpt>
      <trkpt lat="41.598614000" lon="1.900319000">
        <ele>294.80</ele>
        <time>2011-04-10T09:46:53Z</time>
      </trkpt>
      <trkpt lat="41.598453000" lon="1.900178000">
        <ele>295.70</ele>
        <time>2011-04-10T09:46:59Z</time>
      </trkpt>
      <trkpt lat="41.598276000" lon="1.900103000">
        <ele>296.30</ele>
        <time>2011-04-10T09:47:04Z</time>
      </trkpt>
      <trkpt lat="41.598061000" lon="1.900045000">
        <ele>295.50</ele>
        <time>2011-04-10T09:47:11Z</time>
      </trkpt>
      <trkpt lat="41.597867000" lon="1.900092000">
        <ele>294.90</ele>
        <time>2011-04-10T09:47:16Z</time>
      </trkpt>
      <trkpt lat="41.597758000" lon="1.900286000">
        <ele>295.40</ele>
        <time>2011-04-10T09:47:21Z</time>
      </trkpt>
      <trkpt lat="41.597806000" lon="1.900779000">
        <ele>297.20</ele>
        <time>2011-04-10T09:47:37Z</time>
      </trkpt>
      <trkpt lat="41.598130000" lon="1.901111000">
        <ele>297.70</ele>
        <time>2011-04-10T09:47:51Z</time>
      </trkpt>
      <trkpt lat="41.598266000" lon="1.901276000">
        <ele>299.40</ele>
        <time>2011-04-10T09:48:03Z</time>
      </trkpt>
      <trkpt lat="41.598602000" lon="1.901496000">
        <ele>301.50</ele>
        <time>2011-04-10T09:48:19Z</time>
      </trkpt>
      <trkpt lat="41.598696000" lon="1.901674000">
        <ele>303.20</ele>
        <time>2011-04-10T09:48:29Z</time>
      </trkpt>
      <trkpt lat="41.599126000" lon="1.902508000">
        <ele>306.40</ele>
        <time>2011-04-10T09:49:07Z</time>
      </trkpt>
      <trkpt lat="41.599290000" lon="1.902436000">
        <ele>306.30</ele>
        <time>2011-04-10T09:49:20Z</time>
      </trkpt>
      <trkpt lat="41.599434000" lon="1.902367000">
        <ele>307.50</ele>
        <time>2011-04-10T09:49:28Z</time>
      </trkpt>
      <trkpt lat="41.599335000" lon="1.902555000">
        <ele>308.80</ele>
        <time>2011-04-10T09:49:37Z</time>
      </trkpt>
      <trkpt lat="41.599630000" lon="1.902819000">
        <ele>313.40</ele>
        <time>2011-04-10T09:49:56Z</time>
      </trkpt>
      <trkpt lat="41.600246000" lon="1.904049000">
        <ele>320.60</ele>
        <time>2011-04-10T09:50:48Z</time>
      </trkpt>
      <trkpt lat="41.600339000" lon="1.904811000">
        <ele>321.00</ele>
        <time>2011-04-10T09:51:11Z</time>
      </trkpt>
      <trkpt lat="41.600716000" lon="1.905442000">
        <ele>323.30</ele>
        <time>2011-04-10T09:51:32Z</time>
      </trkpt>
      <trkpt lat="41.600992000" lon="1.905755000">
        <ele>326.80</ele>
        <time>2011-04-10T09:51:48Z</time>
      </trkpt>
      <trkpt lat="41.600653000" lon="1.905943000">
        <ele>329.70</ele>
        <time>2011-04-10T09:52:07Z</time>
      </trkpt>
      <trkpt lat="41.600666000" lon="1.906963000">
        <ele>333.30</ele>
        <time>2011-04-10T09:52:38Z</time>
      </trkpt>
      <trkpt lat="41.600594000" lon="1.907173000">
        <ele>335.10</ele>
        <time>2011-04-10T09:52:47Z</time>
      </trkpt>
      <trkpt lat="41.600416000" lon="1.907263000">
        <ele>335.80</ele>
        <time>2011-04-10T09:52:56Z</time>
      </trkpt>
      <trkpt lat="41.599960000" lon="1.907682000">
        <ele>339.00</ele>
        <time>2011-04-10T09:53:20Z</time>
      </trkpt>
      <trkpt lat="41.599826000" lon="1.907853000">
        <ele>342.30</ele>
        <time>2011-04-10T09:53:36Z</time>
      </trkpt>
      <trkpt lat="41.599608000" lon="1.908191000">
        <ele>345.50</ele>
        <time>2011-04-10T09:54:00Z</time>
      </trkpt>
      <trkpt lat="41.599419000" lon="1.908940000">
        <ele>345.00</ele>
        <time>2011-04-10T09:54:37Z</time>
      </trkpt>
      <trkpt lat="41.599171000" lon="1.909362000">
        <ele>345.60</ele>
        <time>2011-04-10T09:54:49Z</time>
      </trkpt>
      <trkpt lat="41.599340000" lon="1.910095000">
        <ele>340.70</ele>
        <time>2011-04-10T09:55:17Z</time>
      </trkpt>
      <trkpt lat="41.599442000" lon="1.910326000">
        <ele>340.00</ele>
        <time>2011-04-10T09:55:25Z</time>
      </trkpt>
      <trkpt lat="41.599557000" lon="1.910519000">
        <ele>340.80</ele>
        <time>2011-04-10T09:55:34Z</time>
      </trkpt>
      <trkpt lat="41.599452000" lon="1.910698000">
        <ele>340.60</ele>
        <time>2011-04-10T09:55:41Z</time>
      </trkpt>
      <trkpt lat="41.598874000" lon="1.910556000">
        <ele>341.90</ele>
        <time>2011-04-10T09:56:00Z</time>
      </trkpt>
      <trkpt lat="41.598665000" lon="1.910553000">
        <ele>342.70</ele>
        <time>2011-04-10T09:56:07Z</time>
      </trkpt>
      <trkpt lat="41.598491000" lon="1.910626000">
        <ele>343.80</ele>
        <time>2011-04-10T09:56:14Z</time>
      </trkpt>
      <trkpt lat="41.598126000" lon="1.910714000">
        <ele>346.90</ele>
        <time>2011-04-10T09:56:30Z</time>
      </trkpt>
      <trkpt lat="41.597973000" lon="1.910854000">
        <ele>349.70</ele>
        <time>2011-04-10T09:56:40Z</time>
      </trkpt>
      <trkpt lat="41.597779000" lon="1.911260000">
        <ele>350.90</ele>
        <time>2011-04-10T09:56:56Z</time>
      </trkpt>
      <trkpt lat="41.597572000" lon="1.911310000">
        <ele>352.50</ele>
        <time>2011-04-10T09:57:03Z</time>
      </trkpt>
      <trkpt lat="41.597294000" lon="1.911632000">
        <ele>352.70</ele>
        <time>2011-04-10T09:57:19Z</time>
      </trkpt>
      <trkpt lat="41.597116000" lon="1.911704000">
        <ele>351.80</ele>
        <time>2011-04-10T09:57:24Z</time>
      </trkpt>
      <trkpt lat="41.596942000" lon="1.911799000">
        <ele>354.90</ele>
        <time>2011-04-10T09:57:36Z</time>
      </trkpt>
      <trkpt lat="41.596583000" lon="1.911805000">
        <ele>360.20</ele>
        <time>2011-04-10T10:01:33Z</time>
      </trkpt>
      <trkpt lat="41.596216000" lon="1.911797000">
        <ele>360.90</ele>
        <time>2011-04-10T10:01:59Z</time>
      </trkpt>
      <trkpt lat="41.596108000" lon="1.911995000">
        <ele>360.80</ele>
        <time>2011-04-10T10:02:08Z</time>
      </trkpt>
      <trkpt lat="41.595677000" lon="1.912481000">
        <ele>365.30</ele>
        <time>2011-04-10T10:02:37Z</time>
      </trkpt>
      <trkpt lat="41.595314000" lon="1.912414000">
        <ele>364.70</ele>
        <time>2011-04-10T10:02:53Z</time>
      </trkpt>
      <trkpt lat="41.594706000" lon="1.912583000">
        <ele>363.00</ele>
        <time>2011-04-10T10:03:07Z</time>
      </trkpt>
      <trkpt lat="41.594356000" lon="1.912494000">
        <ele>359.30</ele>
        <time>2011-04-10T10:03:16Z</time>
      </trkpt>
      <trkpt lat="41.593996000" lon="1.913088000">
        <ele>353.50</ele>
        <time>2011-04-10T10:03:28Z</time>
      </trkpt>
      <trkpt lat="41.593819000" lon="1.913091000">
        <ele>353.10</ele>
        <time>2011-04-10T10:03:33Z</time>
      </trkpt>
      <trkpt lat="41.592798000" lon="1.912202000">
        <ele>348.70</ele>
        <time>2011-04-10T10:03:56Z</time>
      </trkpt>
      <trkpt lat="41.592592000" lon="1.912254000">
        <ele>347.80</ele>
        <time>2011-04-10T10:04:01Z</time>
      </trkpt>
      <trkpt lat="41.592462000" lon="1.912495000">
        <ele>346.60</ele>
        <time>2011-04-10T10:04:05Z</time>
      </trkpt>
      <trkpt lat="41.592098000" lon="1.912732000">
        <ele>344.90</ele>
        <time>2011-04-10T10:04:13Z</time>
      </trkpt>
      <trkpt lat="41.591961000" lon="1.912956000">
        <ele>345.00</ele>
        <time>2011-04-10T10:04:17Z</time>
      </trkpt>
      <trkpt lat="41.592046000" lon="1.913497000">
        <ele>344.10</ele>
        <time>2011-04-10T10:04:25Z</time>
      </trkpt>
      <trkpt lat="41.591868000" lon="1.913988000">
        <ele>342.90</ele>
        <time>2011-04-10T10:04:34Z</time>
      </trkpt>
      <trkpt lat="41.590856000" lon="1.914226000">
        <ele>337.20</ele>
        <time>2011-04-10T10:04:52Z</time>
      </trkpt>
      <trkpt lat="41.590485000" lon="1.914458000">
        <ele>335.50</ele>
        <time>2011-04-10T10:05:00Z</time>
      </trkpt>
      <trkpt lat="41.589188000" lon="1.915329000">
        <ele>331.80</ele>
        <time>2011-04-10T10:05:23Z</time>
      </trkpt>
      <trkpt lat="41.588605000" lon="1.915700000">
        <ele>328.70</ele>
        <time>2011-04-10T10:05:33Z</time>
      </trkpt>
      <trkpt lat="41.588189000" lon="1.915882000">
        <ele>326.70</ele>
        <time>2011-04-10T10:05:42Z</time>
      </trkpt>
      <trkpt lat="41.587997000" lon="1.915971000">
        <ele>325.30</ele>
        <time>2011-04-10T10:05:47Z</time>
      </trkpt>
      <trkpt lat="41.587503000" lon="1.916570000">
        <ele>319.60</ele>
        <time>2011-04-10T10:05:58Z</time>
      </trkpt>
      <trkpt lat="41.587376000" lon="1.916811000">
        <ele>318.00</ele>
        <time>2011-04-10T10:06:03Z</time>
      </trkpt>
      <trkpt lat="41.587356000" lon="1.917093000">
        <ele>316.90</ele>
        <time>2011-04-10T10:06:06Z</time>
      </trkpt>
      <trkpt lat="41.587512000" lon="1.917260000">
        <ele>317.50</ele>
        <time>2011-04-10T10:06:10Z</time>
      </trkpt>
      <trkpt lat="41.588102000" lon="1.917201000">
        <ele>322.90</ele>
        <time>2011-04-10T10:06:26Z</time>
      </trkpt>
      <trkpt lat="41.588177000" lon="1.917374000">
        <ele>325.60</ele>
        <time>2011-04-10T10:06:34Z</time>
      </trkpt>
      <trkpt lat="41.588166000" lon="1.917413000">
        <ele>326.60</ele>
        <time>2011-04-10T11:01:58Z</time>
      </trkpt>
      <trkpt lat="41.588342000" lon="1.917369000">
        <ele>327.60</ele>
        <time>2011-04-10T11:02:07Z</time>
      </trkpt>
      <trkpt lat="41.588502000" lon="1.917460000">
        <ele>328.80</ele>
        <time>2011-04-10T11:02:26Z</time>
      </trkpt>
      <trkpt lat="41.589011000" lon="1.917893000">
        <ele>334.40</ele>
        <time>2011-04-10T11:02:52Z</time>
      </trkpt>
      <trkpt lat="41.589346000" lon="1.918063000">
        <ele>335.90</ele>
        <time>2011-04-10T11:03:09Z</time>
      </trkpt>
      <trkpt lat="41.589919000" lon="1.918696000">
        <ele>340.10</ele>
        <time>2011-04-10T11:03:39Z</time>
      </trkpt>
      <trkpt lat="41.591178000" lon="1.919350000">
        <ele>346.50</ele>
        <time>2011-04-10T11:04:31Z</time>
      </trkpt>
      <trkpt lat="41.591501000" lon="1.919635000">
        <ele>348.10</ele>
        <time>2011-04-10T11:04:45Z</time>
      </trkpt>
      <trkpt lat="41.591863000" lon="1.919813000">
        <ele>349.30</ele>
        <time>2011-04-10T11:04:59Z</time>
      </trkpt>
      <trkpt lat="41.592144000" lon="1.920188000">
        <ele>351.10</ele>
        <time>2011-04-10T11:05:13Z</time>
      </trkpt>
      <trkpt lat="41.593108000" lon="1.920469000">
        <ele>356.30</ele>
        <time>2011-04-10T11:05:44Z</time>
      </trkpt>
      <trkpt lat="41.593539000" lon="1.920537000">
        <ele>362.70</ele>
        <time>2011-04-10T11:06:02Z</time>
      </trkpt>
      <trkpt lat="41.593714000" lon="1.920640000">
        <ele>365.70</ele>
        <time>2011-04-10T11:06:09Z</time>
      </trkpt>
      <trkpt lat="41.594558000" lon="1.921287000">
        <ele>370.60</ele>
        <time>2011-04-10T11:06:44Z</time>
      </trkpt>
      <trkpt lat="41.594978000" lon="1.922168000">
        <ele>376.70</ele>
        <time>2011-04-10T11:07:11Z</time>
      </trkpt>
      <trkpt lat="41.595636000" lon="1.922646000">
        <ele>383.70</ele>
        <time>2011-04-10T11:07:39Z</time>
      </trkpt>
      <trkpt lat="41.596221000" lon="1.922522000">
        <ele>391.40</ele>
        <time>2011-04-10T11:08:05Z</time>
      </trkpt>
      <trkpt lat="41.596554000" lon="1.922262000">
        <ele>395.30</ele>
        <time>2011-04-10T11:08:23Z</time>
      </trkpt>
      <trkpt lat="41.596739000" lon="1.922139000">
        <ele>396.60</ele>
        <time>2011-04-10T11:08:33Z</time>
      </trkpt>
      <trkpt lat="41.596947000" lon="1.922141000">
        <ele>396.90</ele>
        <time>2011-04-10T11:08:40Z</time>
      </trkpt>
      <trkpt lat="41.597286000" lon="1.922375000">
        <ele>396.70</ele>
        <time>2011-04-10T11:08:51Z</time>
      </trkpt>
      <trkpt lat="41.597456000" lon="1.922443000">
        <ele>397.90</ele>
        <time>2011-04-10T11:08:58Z</time>
      </trkpt>
      <trkpt lat="41.598005000" lon="1.922347000">
        <ele>400.70</ele>
        <time>2011-04-10T11:09:17Z</time>
      </trkpt>
      <trkpt lat="41.598188000" lon="1.922323000">
        <ele>402.40</ele>
        <time>2011-04-10T11:09:22Z</time>
      </trkpt>
      <trkpt lat="41.598347000" lon="1.922403000">
        <ele>405.20</ele>
        <time>2011-04-10T11:09:31Z</time>
      </trkpt>
      <trkpt lat="41.598654000" lon="1.922045000">
        <ele>406.80</ele>
        <time>2011-04-10T11:09:45Z</time>
      </trkpt>
      <trkpt lat="41.599348000" lon="1.921547000">
        <ele>411.80</ele>
        <time>2011-04-10T11:10:13Z</time>
      </trkpt>
      <trkpt lat="41.599464000" lon="1.921342000">
        <ele>412.80</ele>
        <time>2011-04-10T11:10:21Z</time>
      </trkpt>
      <trkpt lat="41.599532000" lon="1.920868000">
        <ele>414.90</ele>
        <time>2011-04-10T11:10:34Z</time>
      </trkpt>
      <trkpt lat="41.599925000" lon="1.920931000">
        <ele>417.70</ele>
        <time>2011-04-10T11:10:48Z</time>
      </trkpt>
      <trkpt lat="41.600131000" lon="1.920889000">
        <ele>418.00</ele>
        <time>2011-04-10T11:10:54Z</time>
      </trkpt>
      <trkpt lat="41.600535000" lon="1.920729000">
        <ele>417.70</ele>
        <time>2011-04-10T11:11:05Z</time>
      </trkpt>
      <trkpt lat="41.600900000" lon="1.920426000">
        <ele>417.60</ele>
        <time>2011-04-10T11:11:15Z</time>
      </trkpt>
      <trkpt lat="41.601563000" lon="1.919452000">
        <ele>416.60</ele>
        <time>2011-04-10T11:11:38Z</time>
      </trkpt>
      <trkpt lat="41.601653000" lon="1.918949000">
        <ele>416.40</ele>
        <time>2011-04-10T11:11:47Z</time>
      </trkpt>
      <trkpt lat="41.601594000" lon="1.918667000">
        <ele>415.60</ele>
        <time>2011-04-10T11:11:52Z</time>
      </trkpt>
      <trkpt lat="41.601698000" lon="1.918424000">
        <ele>414.30</ele>
        <time>2011-04-10T11:11:55Z</time>
      </trkpt>
      <trkpt lat="41.602040000" lon="1.918201000">
        <ele>411.70</ele>
        <time>2011-04-10T11:12:01Z</time>
      </trkpt>
      <trkpt lat="41.602462000" lon="1.917451000">
        <ele>408.70</ele>
        <time>2011-04-10T11:12:11Z</time>
      </trkpt>
      <trkpt lat="41.602672000" lon="1.917301000">
        <ele>407.60</ele>
        <time>2011-04-10T11:12:13Z</time>
      </trkpt>
      <trkpt lat="41.602883000" lon="1.917466000">
        <ele>407.90</ele>
        <time>2011-04-10T11:12:16Z</time>
      </trkpt>
      <trkpt lat="41.602985000" lon="1.917776000">
        <ele>404.10</ele>
        <time>2011-04-10T11:12:20Z</time>
      </trkpt>
      <trkpt lat="41.603030000" lon="1.918113000">
        <ele>403.10</ele>
        <time>2011-04-10T11:12:23Z</time>
      </trkpt>
      <trkpt lat="41.603201000" lon="1.918368000">
        <ele>402.80</ele>
        <time>2011-04-10T11:12:25Z</time>
      </trkpt>
      <trkpt lat="41.603423000" lon="1.918518000">
        <ele>402.00</ele>
        <time>2011-04-10T11:12:29Z</time>
      </trkpt>
      <trkpt lat="41.603659000" lon="1.918588000">
        <ele>401.40</ele>
        <time>2011-04-10T11:12:32Z</time>
      </trkpt>
      <trkpt lat="41.604123000" lon="1.918563000">
        <ele>400.00</ele>
        <time>2011-04-10T11:12:37Z</time>
      </trkpt>
      <trkpt lat="41.604335000" lon="1.918671000">
        <ele>398.80</ele>
        <time>2011-04-10T11:12:41Z</time>
      </trkpt>
      <trkpt lat="41.604554000" lon="1.918613000">
        <ele>398.50</ele>
        <time>2011-04-10T11:12:44Z</time>
      </trkpt>
      <trkpt lat="41.604784000" lon="1.918150000">
        <ele>398.60</ele>
        <time>2011-04-10T11:12:49Z</time>
      </trkpt>
      <trkpt lat="41.604981000" lon="1.918147000">
        <ele>397.20</ele>
        <time>2011-04-10T11:12:53Z</time>
      </trkpt>
      <trkpt lat="41.605535000" lon="1.918463000">
        <ele>394.80</ele>
        <time>2011-04-10T11:13:02Z</time>
      </trkpt>
      <trkpt lat="41.606250000" lon="1.918592000">
        <ele>388.40</ele>
        <time>2011-04-10T11:13:10Z</time>
      </trkpt>
      <trkpt lat="41.606501000" lon="1.918569000">
        <ele>386.50</ele>
        <time>2011-04-10T11:13:14Z</time>
      </trkpt>
      <trkpt lat="41.606835000" lon="1.918146000">
        <ele>383.20</ele>
        <time>2011-04-10T11:13:19Z</time>
      </trkpt>
      <trkpt lat="41.606890000" lon="1.917887000">
        <ele>381.30</ele>
        <time>2011-04-10T11:13:21Z</time>
      </trkpt>
      <trkpt lat="41.606850000" lon="1.917623000">
        <ele>381.90</ele>
        <time>2011-04-10T11:13:23Z</time>
      </trkpt>
      <trkpt lat="41.606689000" lon="1.916780000">
        <ele>378.20</ele>
        <time>2011-04-10T11:13:30Z</time>
      </trkpt>
      <trkpt lat="41.606882000" lon="1.916712000">
        <ele>377.20</ele>
        <time>2011-04-10T11:13:33Z</time>
      </trkpt>
      <trkpt lat="41.607303000" lon="1.916981000">
        <ele>375.90</ele>
        <time>2011-04-10T11:13:38Z</time>
      </trkpt>
      <trkpt lat="41.607520000" lon="1.917013000">
        <ele>375.00</ele>
        <time>2011-04-10T11:13:42Z</time>
      </trkpt>
      <trkpt lat="41.607728000" lon="1.916878000">
        <ele>374.50</ele>
        <time>2011-04-10T11:13:45Z</time>
      </trkpt>
      <trkpt lat="41.607790000" lon="1.916596000">
        <ele>373.60</ele>
        <time>2011-04-10T11:13:47Z</time>
      </trkpt>
      <trkpt lat="41.607717000" lon="1.916017000">
        <ele>373.00</ele>
        <time>2011-04-10T11:13:54Z</time>
      </trkpt>
      <trkpt lat="41.608141000" lon="1.915418000">
        <ele>370.60</ele>
        <time>2011-04-10T11:14:03Z</time>
      </trkpt>
      <trkpt lat="41.608344000" lon="1.915355000">
        <ele>369.70</ele>
        <time>2011-04-10T11:14:06Z</time>
      </trkpt>
      <trkpt lat="41.609147000" lon="1.915598000">
        <ele>368.40</ele>
        <time>2011-04-10T11:14:18Z</time>
      </trkpt>
      <trkpt lat="41.609291000" lon="1.915461000">
        <ele>368.00</ele>
        <time>2011-04-10T11:14:20Z</time>
      </trkpt>
      <trkpt lat="41.609212000" lon="1.914925000">
        <ele>368.20</ele>
        <time>2011-04-10T11:14:27Z</time>
      </trkpt>
      <trkpt lat="41.609171000" lon="1.914649000">
        <ele>368.50</ele>
        <time>2011-04-10T11:14:32Z</time>
      </trkpt>
      <trkpt lat="41.609261000" lon="1.914163000">
        <ele>372.20</ele>
        <time>2011-04-10T11:14:44Z</time>
      </trkpt>
      <trkpt lat="41.609451000" lon="1.914108000">
        <ele>372.50</ele>
        <time>2011-04-10T11:14:51Z</time>
      </trkpt>
      <trkpt lat="41.609867000" lon="1.914026000">
        <ele>371.00</ele>
        <time>2011-04-10T11:15:04Z</time>
      </trkpt>
      <trkpt lat="41.610244000" lon="1.914151000">
        <ele>369.70</ele>
        <time>2011-04-10T11:15:12Z</time>
      </trkpt>
      <trkpt lat="41.610412000" lon="1.914008000">
        <ele>370.60</ele>
        <time>2011-04-10T11:15:16Z</time>
      </trkpt>
      <trkpt lat="41.610484000" lon="1.913757000">
        <ele>370.60</ele>
        <time>2011-04-10T11:15:21Z</time>
      </trkpt>
      <trkpt lat="41.610640000" lon="1.913644000">
        <ele>371.60</ele>
        <time>2011-04-10T11:15:28Z</time>
      </trkpt>
      <trkpt lat="41.610986000" lon="1.913844000">
        <ele>373.50</ele>
        <time>2011-04-10T11:15:38Z</time>
      </trkpt>
      <trkpt lat="41.611155000" lon="1.913959000">
        <ele>375.90</ele>
        <time>2011-04-10T11:15:47Z</time>
      </trkpt>
      <trkpt lat="41.611431000" lon="1.914271000">
        <ele>381.00</ele>
        <time>2011-04-10T11:16:06Z</time>
      </trkpt>
      <trkpt lat="41.611364000" lon="1.914440000">
        <ele>383.80</ele>
        <time>2011-04-10T11:16:15Z</time>
      </trkpt>
      <trkpt lat="41.611177000" lon="1.914435000">
        <ele>386.50</ele>
        <time>2011-04-10T11:16:25Z</time>
      </trkpt>
      <trkpt lat="41.610995000" lon="1.914548000">
        <ele>388.10</ele>
        <time>2011-04-10T11:16:38Z</time>
      </trkpt>
      <trkpt lat="41.610655000" lon="1.914748000">
        <ele>395.90</ele>
        <time>2011-04-10T11:17:04Z</time>
      </trkpt>
      <trkpt lat="41.610782000" lon="1.914805000">
        <ele>398.30</ele>
        <time>2011-04-10T11:17:16Z</time>
      </trkpt>
      <trkpt lat="41.611174000" lon="1.914806000">
        <ele>400.70</ele>
        <time>2011-04-10T11:17:35Z</time>
      </trkpt>
      <trkpt lat="41.611423000" lon="1.915147000">
        <ele>405.40</ele>
        <time>2011-04-10T11:17:56Z</time>
      </trkpt>
      <trkpt lat="41.612220000" lon="1.915817000">
        <ele>418.20</ele>
        <time>2011-04-10T11:18:50Z</time>
      </trkpt>
      <trkpt lat="41.612392000" lon="1.915912000">
        <ele>420.70</ele>
        <time>2011-04-10T11:19:00Z</time>
      </trkpt>
      <trkpt lat="41.612572000" lon="1.915950000">
        <ele>424.60</ele>
        <time>2011-04-10T11:19:16Z</time>
      </trkpt>
      <trkpt lat="41.612753000" lon="1.915984000">
        <ele>429.80</ele>
        <time>2011-04-10T11:19:32Z</time>
      </trkpt>
      <trkpt lat="41.612778000" lon="1.915842000">
        <ele>433.90</ele>
        <time>2011-04-10T11:20:14Z</time>
      </trkpt>
      <trkpt lat="41.612802000" lon="1.915600000">
        <ele>435.80</ele>
        <time>2011-04-10T11:20:31Z</time>
      </trkpt>
      <trkpt lat="41.612643000" lon="1.915112000">
        <ele>437.70</ele>
        <time>2011-04-10T11:20:47Z</time>
      </trkpt>
      <trkpt lat="41.612602000" lon="1.914893000">
        <ele>436.80</ele>
        <time>2011-04-10T11:20:54Z</time>
      </trkpt>
      <trkpt lat="41.612623000" lon="1.914384000">
        <ele>440.90</ele>
        <time>2011-04-10T11:21:18Z</time>
      </trkpt>
      <trkpt lat="41.612563000" lon="1.914362000">
        <ele>440.50</ele>
        <time>2011-04-10T11:21:30Z</time>
      </trkpt>
      <trkpt lat="41.612732000" lon="1.914469000">
        <ele>443.50</ele>
        <time>2011-04-10T11:21:41Z</time>
      </trkpt>
      <trkpt lat="41.612918000" lon="1.914367000">
        <ele>445.30</ele>
        <time>2011-04-10T11:22:00Z</time>
      </trkpt>
      <trkpt lat="41.613325000" lon="1.914286000">
        <ele>441.70</ele>
        <time>2011-04-10T11:22:10Z</time>
      </trkpt>
      <trkpt lat="41.613547000" lon="1.914189000">
        <ele>439.90</ele>
        <time>2011-04-10T11:22:16Z</time>
      </trkpt>
      <trkpt lat="41.614285000" lon="1.913662000">
        <ele>436.80</ele>
        <time>2011-04-10T11:22:40Z</time>
      </trkpt>
      <trkpt lat="41.614070000" lon="1.914041000">
        <ele>442.50</ele>
        <time>2011-04-10T11:24:09Z</time>
      </trkpt>
      <trkpt lat="41.613838000" lon="1.914425000">
        <ele>450.60</ele>
        <time>2011-04-10T11:24:42Z</time>
      </trkpt>
      <trkpt lat="41.613964000" lon="1.914867000">
        <ele>452.30</ele>
        <time>2011-04-10T11:24:59Z</time>
      </trkpt>
      <trkpt lat="41.614276000" lon="1.915260000">
        <ele>453.60</ele>
        <time>2011-04-10T11:25:15Z</time>
      </trkpt>
      <trkpt lat="41.614364000" lon="1.915481000">
        <ele>458.00</ele>
        <time>2011-04-10T11:25:27Z</time>
      </trkpt>
      <trkpt lat="41.614547000" lon="1.915513000">
        <ele>461.00</ele>
        <time>2011-04-10T11:25:41Z</time>
      </trkpt>
      <trkpt lat="41.615045000" lon="1.915988000">
        <ele>461.80</ele>
        <time>2011-04-10T11:26:00Z</time>
      </trkpt>
      <trkpt lat="41.615589000" lon="1.916267000">
        <ele>461.20</ele>
        <time>2011-04-10T11:26:14Z</time>
      </trkpt>
      <trkpt lat="41.615583000" lon="1.916790000">
        <ele>462.10</ele>
        <time>2011-04-10T11:26:25Z</time>
      </trkpt>
      <trkpt lat="41.615399000" lon="1.916873000">
        <ele>464.00</ele>
        <time>2011-04-10T11:26:33Z</time>
      </trkpt>
      <trkpt lat="41.615003000" lon="1.916802000">
        <ele>464.10</ele>
        <time>2011-04-10T11:26:47Z</time>
      </trkpt>
      <trkpt lat="41.614629000" lon="1.916760000">
        <ele>467.20</ele>
        <time>2011-04-10T11:27:13Z</time>
      </trkpt>
      <trkpt lat="41.613857000" lon="1.916523000">
        <ele>469.30</ele>
        <time>2011-04-10T11:28:18Z</time>
      </trkpt>
      <trkpt lat="41.613675000" lon="1.916586000">
        <ele>469.50</ele>
        <time>2011-04-10T11:28:30Z</time>
      </trkpt>
      <trkpt lat="41.613478000" lon="1.916657000">
        <ele>467.80</ele>
        <time>2011-04-10T11:28:39Z</time>
      </trkpt>
      <trkpt lat="41.613283000" lon="1.916629000">
        <ele>464.20</ele>
        <time>2011-04-10T11:28:51Z</time>
      </trkpt>
      <trkpt lat="41.613142000" lon="1.916797000">
        <ele>463.70</ele>
        <time>2011-04-10T11:30:25Z</time>
      </trkpt>
      <trkpt lat="41.613635000" lon="1.917137000">
        <ele>453.30</ele>
        <time>2011-04-10T11:31:45Z</time>
      </trkpt>
      <trkpt lat="41.613820000" lon="1.917284000">
        <ele>450.20</ele>
        <time>2011-04-10T11:32:11Z</time>
      </trkpt>
      <trkpt lat="41.614245000" lon="1.917339000">
        <ele>444.60</ele>
        <time>2011-04-10T11:32:58Z</time>
      </trkpt>
      <trkpt lat="41.614360000" lon="1.917536000">
        <ele>443.30</ele>
        <time>2011-04-10T11:33:07Z</time>
      </trkpt>
      <trkpt lat="41.614783000" lon="1.918009000">
        <ele>429.90</ele>
        <time>2011-04-10T11:34:27Z</time>
      </trkpt>
      <trkpt lat="41.614661000" lon="1.918025000">
        <ele>427.50</ele>
        <time>2011-04-10T11:34:43Z</time>
      </trkpt>
      <trkpt lat="41.614742000" lon="1.918183000">
        <ele>423.50</ele>
        <time>2011-04-10T11:35:11Z</time>
      </trkpt>
      <trkpt lat="41.614930000" lon="1.918223000">
        <ele>418.60</ele>
        <time>2011-04-10T11:36:03Z</time>
      </trkpt>
      <trkpt lat="41.614881000" lon="1.918421000">
        <ele>414.40</ele>
        <time>2011-04-10T11:36:41Z</time>
      </trkpt>
      <trkpt lat="41.615043000" lon="1.918396000">
        <ele>409.80</ele>
        <time>2011-04-10T11:37:02Z</time>
      </trkpt>
      <trkpt lat="41.615618000" lon="1.918642000">
        <ele>406.10</ele>
        <time>2011-04-10T11:38:07Z</time>
      </trkpt>
      <trkpt lat="41.615821000" lon="1.918680000">
        <ele>405.10</ele>
        <time>2011-04-10T11:38:19Z</time>
      </trkpt>
      <trkpt lat="41.616225000" lon="1.918777000">
        <ele>399.40</ele>
        <time>2011-04-10T11:38:59Z</time>
      </trkpt>
      <trkpt lat="41.616550000" lon="1.918701000">
        <ele>395.70</ele>
        <time>2011-04-10T11:40:14Z</time>
      </trkpt>
      <trkpt lat="41.616678000" lon="1.918842000">
        <ele>393.80</ele>
        <time>2011-04-10T11:40:35Z</time>
      </trkpt>
      <trkpt lat="41.616833000" lon="1.918951000">
        <ele>393.30</ele>
        <time>2011-04-10T11:41:01Z</time>
      </trkpt>
      <trkpt lat="41.616918000" lon="1.919171000">
        <ele>393.50</ele>
        <time>2011-04-10T11:41:34Z</time>
      </trkpt>
      <trkpt lat="41.617232000" lon="1.919511000">
        <ele>388.80</ele>
        <time>2011-04-10T11:42:19Z</time>
      </trkpt>
      <trkpt lat="41.617301000" lon="1.919743000">
        <ele>386.70</ele>
        <time>2011-04-10T11:42:40Z</time>
      </trkpt>
      <trkpt lat="41.617486000" lon="1.919860000">
        <ele>384.60</ele>
        <time>2011-04-10T11:42:59Z</time>
      </trkpt>
      <trkpt lat="41.617614000" lon="1.919972000">
        <ele>384.70</ele>
        <time>2011-04-10T11:43:29Z</time>
      </trkpt>
      <trkpt lat="41.617723000" lon="1.920153000">
        <ele>383.20</ele>
        <time>2011-04-10T11:43:45Z</time>
      </trkpt>
      <trkpt lat="41.617829000" lon="1.920329000">
        <ele>379.60</ele>
        <time>2011-04-10T11:44:07Z</time>
      </trkpt>
      <trkpt lat="41.617705000" lon="1.920313000">
        <ele>376.40</ele>
        <time>2011-04-10T11:44:42Z</time>
      </trkpt>
      <trkpt lat="41.617370000" lon="1.920234000">
        <ele>375.10</ele>
        <time>2011-04-10T11:45:05Z</time>
      </trkpt>
      <trkpt lat="41.617359000" lon="1.920461000">
        <ele>377.00</ele>
        <time>2011-04-10T11:45:15Z</time>
      </trkpt>
      <trkpt lat="41.617503000" lon="1.920974000">
        <ele>376.40</ele>
        <time>2011-04-10T11:45:34Z</time>
      </trkpt>
      <trkpt lat="41.617541000" lon="1.921236000">
        <ele>374.20</ele>
        <time>2011-04-10T11:46:00Z</time>
      </trkpt>
      <trkpt lat="41.617288000" lon="1.921914000">
        <ele>370.60</ele>
        <time>2011-04-10T11:46:25Z</time>
      </trkpt>
      <trkpt lat="41.617398000" lon="1.922391000">
        <ele>364.00</ele>
        <time>2011-04-10T11:47:00Z</time>
      </trkpt>
      <trkpt lat="41.617258000" lon="1.923172000">
        <ele>365.60</ele>
        <time>2011-04-10T11:47:24Z</time>
      </trkpt>
      <trkpt lat="41.617310000" lon="1.923364000">
        <ele>363.30</ele>
        <time>2011-04-10T11:48:37Z</time>
      </trkpt>
      <trkpt lat="41.617420000" lon="1.923426000">
        <ele>364.30</ele>
        <time>2011-04-10T11:53:32Z</time>
      </trkpt>
      <trkpt lat="41.617395000" lon="1.923639000">
        <ele>366.20</ele>
        <time>2011-04-10T11:53:46Z</time>
      </trkpt>
      <trkpt lat="41.617475000" lon="1.923857000">
        <ele>370.90</ele>
        <time>2011-04-10T11:54:10Z</time>
      </trkpt>
      <trkpt lat="41.617621000" lon="1.924292000">
        <ele>373.50</ele>
        <time>2011-04-10T11:54:41Z</time>
      </trkpt>
      <trkpt lat="41.617486000" lon="1.924432000">
        <ele>374.40</ele>
        <time>2011-04-10T11:55:04Z</time>
      </trkpt>
      <trkpt lat="41.617211000" lon="1.924645000">
        <ele>380.10</ele>
        <time>2011-04-10T11:55:46Z</time>
      </trkpt>
      <trkpt lat="41.617102000" lon="1.924858000">
        <ele>382.80</ele>
        <time>2011-04-10T11:56:05Z</time>
      </trkpt>
      <trkpt lat="41.617018000" lon="1.925078000">
        <ele>387.20</ele>
        <time>2011-04-10T11:56:24Z</time>
      </trkpt>
      <trkpt lat="41.617026000" lon="1.925303000">
        <ele>390.40</ele>
        <time>2011-04-10T11:56:59Z</time>
      </trkpt>
      <trkpt lat="41.617057000" lon="1.925817000">
        <ele>392.90</ele>
        <time>2011-04-10T11:57:20Z</time>
      </trkpt>
      <trkpt lat="41.616935000" lon="1.926000000">
        <ele>393.70</ele>
        <time>2011-04-10T11:57:30Z</time>
      </trkpt>
      <trkpt lat="41.616777000" lon="1.925999000">
        <ele>395.20</ele>
        <time>2011-04-10T11:57:46Z</time>
      </trkpt>
      <trkpt lat="41.616589000" lon="1.925985000">
        <ele>398.00</ele>
        <time>2011-04-10T11:58:19Z</time>
      </trkpt>
      <trkpt lat="41.616465000" lon="1.926156000">
        <ele>401.00</ele>
        <time>2011-04-10T11:58:40Z</time>
      </trkpt>
      <trkpt lat="41.616446000" lon="1.926621000">
        <ele>406.10</ele>
        <time>2011-04-10T11:59:06Z</time>
      </trkpt>
      <trkpt lat="41.616339000" lon="1.926820000">
        <ele>408.50</ele>
        <time>2011-04-10T11:59:20Z</time>
      </trkpt>
      <trkpt lat="41.616470000" lon="1.926800000">
        <ele>409.70</ele>
        <time>2011-04-10T11:59:34Z</time>
      </trkpt>
      <trkpt lat="41.616556000" lon="1.926952000">
        <ele>410.30</ele>
        <time>2011-04-10T12:00:11Z</time>
      </trkpt>
      <trkpt lat="41.616555000" lon="1.927203000">
        <ele>412.20</ele>
        <time>2011-04-10T12:00:23Z</time>
      </trkpt>
      <trkpt lat="41.616578000" lon="1.927467000">
        <ele>412.40</ele>
        <time>2011-04-10T12:01:31Z</time>
      </trkpt>
      <trkpt lat="41.616362000" lon="1.929252000">
        <ele>417.90</ele>
        <time>2011-04-10T12:02:18Z</time>
      </trkpt>
      <trkpt lat="41.616492000" lon="1.929722000">
        <ele>418.80</ele>
        <time>2011-04-10T12:02:32Z</time>
      </trkpt>
      <trkpt lat="41.616203000" lon="1.930060000">
        <ele>420.60</ele>
        <time>2011-04-10T12:02:46Z</time>
      </trkpt>
      <trkpt lat="41.615824000" lon="1.930117000">
        <ele>423.20</ele>
        <time>2011-04-10T12:03:01Z</time>
      </trkpt>
      <trkpt lat="41.615744000" lon="1.930313000">
        <ele>424.80</ele>
        <time>2011-04-10T12:03:10Z</time>
      </trkpt>
      <trkpt lat="41.615752000" lon="1.930583000">
        <ele>426.90</ele>
        <time>2011-04-10T12:03:19Z</time>
      </trkpt>
      <trkpt lat="41.615744000" lon="1.931340000">
        <ele>426.80</ele>
        <time>2011-04-10T12:03:38Z</time>
      </trkpt>
      <trkpt lat="41.615654000" lon="1.931584000">
        <ele>427.80</ele>
        <time>2011-04-10T12:03:45Z</time>
      </trkpt>
      <trkpt lat="41.615659000" lon="1.931844000">
        <ele>427.70</ele>
        <time>2011-04-10T12:03:55Z</time>
      </trkpt>
      <trkpt lat="41.615694000" lon="1.932094000">
        <ele>425.40</ele>
        <time>2011-04-10T12:04:00Z</time>
      </trkpt>
      <trkpt lat="41.615201000" lon="1.932444000">
        <ele>428.60</ele>
        <time>2011-04-10T12:04:20Z</time>
      </trkpt>
      <trkpt lat="41.615157000" lon="1.932691000">
        <ele>429.70</ele>
        <time>2011-04-10T12:04:25Z</time>
      </trkpt>
      <trkpt lat="41.614955000" lon="1.933706000">
        <ele>430.90</ele>
        <time>2011-04-10T12:04:47Z</time>
      </trkpt>
      <trkpt lat="41.614733000" lon="1.934127000">
        <ele>433.00</ele>
        <time>2011-04-10T12:05:00Z</time>
      </trkpt>
      <trkpt lat="41.614666000" lon="1.934670000">
        <ele>431.60</ele>
        <time>2011-04-10T12:05:10Z</time>
      </trkpt>
      <trkpt lat="41.614630000" lon="1.934962000">
        <ele>432.10</ele>
        <time>2011-04-10T12:05:15Z</time>
      </trkpt>
      <trkpt lat="41.614384000" lon="1.935668000">
        <ele>434.10</ele>
        <time>2011-04-10T12:05:31Z</time>
      </trkpt>
      <trkpt lat="41.613985000" lon="1.936494000">
        <ele>434.80</ele>
        <time>2011-04-10T12:05:47Z</time>
      </trkpt>
      <trkpt lat="41.613712000" lon="1.936741000">
        <ele>433.50</ele>
        <time>2011-04-10T12:05:59Z</time>
      </trkpt>
      <trkpt lat="41.613637000" lon="1.936968000">
        <ele>438.20</ele>
        <time>2011-04-10T12:06:08Z</time>
      </trkpt>
      <trkpt lat="41.613345000" lon="1.937939000">
        <ele>445.00</ele>
        <time>2011-04-10T12:06:44Z</time>
      </trkpt>
      <trkpt lat="41.613068000" lon="1.938268000">
        <ele>450.30</ele>
        <time>2011-04-10T12:07:05Z</time>
      </trkpt>
      <trkpt lat="41.612571000" lon="1.938728000">
        <ele>452.60</ele>
        <time>2011-04-10T12:07:28Z</time>
      </trkpt>
      <trkpt lat="41.612036000" lon="1.939124000">
        <ele>454.60</ele>
        <time>2011-04-10T12:07:52Z</time>
      </trkpt>
      <trkpt lat="41.611686000" lon="1.939360000">
        <ele>458.80</ele>
        <time>2011-04-10T12:08:10Z</time>
      </trkpt>
      <trkpt lat="41.611422000" lon="1.939988000">
        <ele>464.70</ele>
        <time>2011-04-10T12:08:39Z</time>
      </trkpt>
      <trkpt lat="41.611420000" lon="1.940728000">
        <ele>466.70</ele>
        <time>2011-04-10T12:09:07Z</time>
      </trkpt>
      <trkpt lat="41.611523000" lon="1.940961000">
        <ele>468.60</ele>
        <time>2011-04-10T12:09:16Z</time>
      </trkpt>
      <trkpt lat="41.611740000" lon="1.941375000">
        <ele>474.50</ele>
        <time>2011-04-10T12:09:40Z</time>
      </trkpt>
      <trkpt lat="41.611866000" lon="1.942097000">
        <ele>482.30</ele>
        <time>2011-04-10T12:10:15Z</time>
      </trkpt>
      <trkpt lat="41.611787000" lon="1.943379000">
        <ele>489.80</ele>
        <time>2011-04-10T12:11:04Z</time>
      </trkpt>
      <trkpt lat="41.611767000" lon="1.943891000">
        <ele>494.10</ele>
        <time>2011-04-10T12:11:21Z</time>
      </trkpt>
      <trkpt lat="41.611693000" lon="1.944133000">
        <ele>496.60</ele>
        <time>2011-04-10T12:11:33Z</time>
      </trkpt>
      <trkpt lat="41.611654000" lon="1.944372000">
        <ele>500.80</ele>
        <time>2011-04-10T12:11:46Z</time>
      </trkpt>
      <trkpt lat="41.611585000" lon="1.944261000">
        <ele>502.20</ele>
        <time>2011-04-10T12:11:58Z</time>
      </trkpt>
      <trkpt lat="41.611525000" lon="1.943539000">
        <ele>507.70</ele>
        <time>2011-04-10T12:12:31Z</time>
      </trkpt>
      <trkpt lat="41.611476000" lon="1.942789000">
        <ele>508.40</ele>
        <time>2011-04-10T12:12:55Z</time>
      </trkpt>
      <trkpt lat="41.611352000" lon="1.942558000">
        <ele>507.40</ele>
        <time>2011-04-10T12:13:04Z</time>
      </trkpt>
      <trkpt lat="41.611190000" lon="1.942079000">
        <ele>509.10</ele>
        <time>2011-04-10T12:13:20Z</time>
      </trkpt>
      <trkpt lat="41.610583000" lon="1.942108000">
        <ele>510.80</ele>
        <time>2011-04-10T12:13:42Z</time>
      </trkpt>
      <trkpt lat="41.610209000" lon="1.941951000">
        <ele>512.10</ele>
        <time>2011-04-10T12:13:56Z</time>
      </trkpt>
      <trkpt lat="41.610023000" lon="1.941983000">
        <ele>513.00</ele>
        <time>2011-04-10T12:14:05Z</time>
      </trkpt>
      <trkpt lat="41.609919000" lon="1.941802000">
        <ele>515.00</ele>
        <time>2011-04-10T12:14:12Z</time>
      </trkpt>
      <trkpt lat="41.609918000" lon="1.941305000">
        <ele>518.40</ele>
        <time>2011-04-10T12:14:31Z</time>
      </trkpt>
      <trkpt lat="41.610112000" lon="1.940597000">
        <ele>527.10</ele>
        <time>2011-04-10T12:15:06Z</time>
      </trkpt>
      <trkpt lat="41.609701000" lon="1.940016000">
        <ele>528.90</ele>
        <time>2011-04-10T12:15:32Z</time>
      </trkpt>
      <trkpt lat="41.609578000" lon="1.939850000">
        <ele>530.50</ele>
        <time>2011-04-10T12:15:39Z</time>
      </trkpt>
      <trkpt lat="41.609616000" lon="1.939595000">
        <ele>532.50</ele>
        <time>2011-04-10T12:15:48Z</time>
      </trkpt>
      <trkpt lat="41.609894000" lon="1.939215000">
        <ele>534.60</ele>
        <time>2011-04-10T12:16:05Z</time>
      </trkpt>
      <trkpt lat="41.609884000" lon="1.939111000">
        <ele>536.50</ele>
        <time>2011-04-10T12:16:16Z</time>
      </trkpt>
      <trkpt lat="41.609388000" lon="1.939597000">
        <ele>540.10</ele>
        <time>2011-04-10T12:16:42Z</time>
      </trkpt>
      <trkpt lat="41.609311000" lon="1.939819000">
        <ele>541.30</ele>
        <time>2011-04-10T12:16:50Z</time>
      </trkpt>
      <trkpt lat="41.609371000" lon="1.940066000">
        <ele>542.60</ele>
        <time>2011-04-10T12:16:59Z</time>
      </trkpt>
      <trkpt lat="41.609585000" lon="1.940471000">
        <ele>547.60</ele>
        <time>2011-04-10T12:17:15Z</time>
      </trkpt>
      <trkpt lat="41.609588000" lon="1.940702000">
        <ele>549.50</ele>
        <time>2011-04-10T12:17:22Z</time>
      </trkpt>
      <trkpt lat="41.608946000" lon="1.941324000">
        <ele>554.20</ele>
        <time>2011-04-10T12:17:55Z</time>
      </trkpt>
      <trkpt lat="41.608961000" lon="1.941572000">
        <ele>556.00</ele>
        <time>2011-04-10T12:18:04Z</time>
      </trkpt>
      <trkpt lat="41.609033000" lon="1.941803000">
        <ele>557.70</ele>
        <time>2011-04-10T12:18:12Z</time>
      </trkpt>
      <trkpt lat="41.609215000" lon="1.942225000">
        <ele>564.40</ele>
        <time>2011-04-10T12:18:35Z</time>
      </trkpt>
      <trkpt lat="41.609140000" lon="1.942701000">
        <ele>570.80</ele>
        <time>2011-04-10T12:19:01Z</time>
      </trkpt>
      <trkpt lat="41.609211000" lon="1.942917000">
        <ele>571.90</ele>
        <time>2011-04-10T12:19:12Z</time>
      </trkpt>
      <trkpt lat="41.609605000" lon="1.943472000">
        <ele>575.90</ele>
        <time>2011-04-10T12:19:41Z</time>
      </trkpt>
      <trkpt lat="41.609847000" lon="1.943828000">
        <ele>580.90</ele>
        <time>2011-04-10T12:20:02Z</time>
      </trkpt>
      <trkpt lat="41.609806000" lon="1.944323000">
        <ele>581.80</ele>
        <time>2011-04-10T12:20:16Z</time>
      </trkpt>
      <trkpt lat="41.609771000" lon="1.944821000">
        <ele>586.10</ele>
        <time>2011-04-10T12:20:33Z</time>
      </trkpt>
      <trkpt lat="41.609707000" lon="1.945071000">
        <ele>587.40</ele>
        <time>2011-04-10T12:20:42Z</time>
      </trkpt>
      <trkpt lat="41.609608000" lon="1.945283000">
        <ele>590.20</ele>
        <time>2011-04-10T12:20:53Z</time>
      </trkpt>
      <trkpt lat="41.609465000" lon="1.945444000">
        <ele>593.60</ele>
        <time>2011-04-10T12:21:05Z</time>
      </trkpt>
      <trkpt lat="41.608922000" lon="1.945429000">
        <ele>588.90</ele>
        <time>2011-04-10T12:24:04Z</time>
      </trkpt>
      <trkpt lat="41.608803000" lon="1.945679000">
        <ele>587.40</ele>
        <time>2011-04-10T12:24:09Z</time>
      </trkpt>
      <trkpt lat="41.608816000" lon="1.946174000">
        <ele>585.40</ele>
        <time>2011-04-10T12:24:20Z</time>
      </trkpt>
      <trkpt lat="41.608720000" lon="1.946027000">
        <ele>583.30</ele>
        <time>2011-04-10T12:24:29Z</time>
      </trkpt>
      <trkpt lat="41.608714000" lon="1.945465000">
        <ele>579.70</ele>
        <time>2011-04-10T12:24:39Z</time>
      </trkpt>
      <trkpt lat="41.608668000" lon="1.944947000">
        <ele>573.50</ele>
        <time>2011-04-10T12:24:48Z</time>
      </trkpt>
      <trkpt lat="41.609067000" lon="1.944931000">
        <ele>568.50</ele>
        <time>2011-04-10T12:24:55Z</time>
      </trkpt>
      <trkpt lat="41.609231000" lon="1.944746000">
        <ele>566.60</ele>
        <time>2011-04-10T12:25:00Z</time>
      </trkpt>
      <trkpt lat="41.609249000" lon="1.944426000">
        <ele>563.10</ele>
        <time>2011-04-10T12:25:02Z</time>
      </trkpt>
      <trkpt lat="41.609218000" lon="1.944065000">
        <ele>559.30</ele>
        <time>2011-04-10T12:25:05Z</time>
      </trkpt>
      <trkpt lat="41.609147000" lon="1.943799000">
        <ele>557.50</ele>
        <time>2011-04-10T12:25:07Z</time>
      </trkpt>
      <trkpt lat="41.609041000" lon="1.943549000">
        <ele>557.00</ele>
        <time>2011-04-10T12:25:10Z</time>
      </trkpt>
      <trkpt lat="41.608797000" lon="1.943121000">
        <ele>552.40</ele>
        <time>2011-04-10T12:25:14Z</time>
      </trkpt>
      <trkpt lat="41.608487000" lon="1.942795000">
        <ele>550.00</ele>
        <time>2011-04-10T12:25:17Z</time>
      </trkpt>
      <trkpt lat="41.608311000" lon="1.942714000">
        <ele>549.20</ele>
        <time>2011-04-10T12:25:19Z</time>
      </trkpt>
      <trkpt lat="41.608124000" lon="1.942702000">
        <ele>548.00</ele>
        <time>2011-04-10T12:25:21Z</time>
      </trkpt>
      <trkpt lat="41.607488000" lon="1.942610000">
        <ele>541.00</ele>
        <time>2011-04-10T12:25:31Z</time>
      </trkpt>
      <trkpt lat="41.607363000" lon="1.942392000">
        <ele>541.60</ele>
        <time>2011-04-10T12:25:35Z</time>
      </trkpt>
      <trkpt lat="41.607203000" lon="1.942283000">
        <ele>540.20</ele>
        <time>2011-04-10T12:25:40Z</time>
      </trkpt>
      <trkpt lat="41.606389000" lon="1.942271000">
        <ele>535.30</ele>
        <time>2011-04-10T12:25:54Z</time>
      </trkpt>
      <trkpt lat="41.606183000" lon="1.942257000">
        <ele>532.70</ele>
        <time>2011-04-10T12:25:57Z</time>
      </trkpt>
      <trkpt lat="41.605948000" lon="1.942215000">
        <ele>530.60</ele>
        <time>2011-04-10T12:25:59Z</time>
      </trkpt>
      <trkpt lat="41.605553000" lon="1.942094000">
        <ele>530.70</ele>
        <time>2011-04-10T12:26:06Z</time>
      </trkpt>
      <trkpt lat="41.605409000" lon="1.941940000">
        <ele>530.50</ele>
        <time>2011-04-10T12:26:08Z</time>
      </trkpt>
      <trkpt lat="41.605264000" lon="1.941756000">
        <ele>528.90</ele>
        <time>2011-04-10T12:26:11Z</time>
      </trkpt>
      <trkpt lat="41.605125000" lon="1.941592000">
        <ele>529.90</ele>
        <time>2011-04-10T12:26:15Z</time>
      </trkpt>
      <trkpt lat="41.604809000" lon="1.941367000">
        <ele>533.10</ele>
        <time>2011-04-10T12:26:23Z</time>
      </trkpt>
      <trkpt lat="41.604619000" lon="1.941342000">
        <ele>532.20</ele>
        <time>2011-04-10T12:26:29Z</time>
      </trkpt>
      <trkpt lat="41.604206000" lon="1.941445000">
        <ele>526.20</ele>
        <time>2011-04-10T12:26:36Z</time>
      </trkpt>
      <trkpt lat="41.603987000" lon="1.941481000">
        <ele>525.40</ele>
        <time>2011-04-10T12:26:39Z</time>
      </trkpt>
      <trkpt lat="41.603769000" lon="1.941493000">
        <ele>526.30</ele>
        <time>2011-04-10T12:26:41Z</time>
      </trkpt>
      <trkpt lat="41.602990000" lon="1.941370000">
        <ele>533.00</ele>
        <time>2011-04-10T12:26:58Z</time>
      </trkpt>
      <trkpt lat="41.602614000" lon="1.941276000">
        <ele>531.90</ele>
        <time>2011-04-10T12:27:11Z</time>
      </trkpt>
      <trkpt lat="41.602244000" lon="1.941387000">
        <ele>531.70</ele>
        <time>2011-04-10T12:27:23Z</time>
      </trkpt>
      <trkpt lat="41.602082000" lon="1.941468000">
        <ele>529.10</ele>
        <time>2011-04-10T12:27:30Z</time>
      </trkpt>
      <trkpt lat="41.601894000" lon="1.941502000">
        <ele>522.20</ele>
        <time>2011-04-10T12:27:45Z</time>
      </trkpt>
      <trkpt lat="41.601723000" lon="1.941465000">
        <ele>515.70</ele>
        <time>2011-04-10T12:28:18Z</time>
      </trkpt>
      <trkpt lat="41.601516000" lon="1.941449000">
        <ele>511.30</ele>
        <time>2011-04-10T12:28:55Z</time>
      </trkpt>
      <trkpt lat="41.601072000" lon="1.941496000">
        <ele>506.50</ele>
        <time>2011-04-10T12:29:02Z</time>
      </trkpt>
      <trkpt lat="41.600826000" lon="1.941597000">
        <ele>505.00</ele>
        <time>2011-04-10T12:29:04Z</time>
      </trkpt>
      <trkpt lat="41.600575000" lon="1.941702000">
        <ele>504.30</ele>
        <time>2011-04-10T12:29:07Z</time>
      </trkpt>
      <trkpt lat="41.600198000" lon="1.941780000">
        <ele>507.50</ele>
        <time>2011-04-10T12:29:16Z</time>
      </trkpt>
      <trkpt lat="41.599786000" lon="1.942049000">
        <ele>501.90</ele>
        <time>2011-04-10T12:29:23Z</time>
      </trkpt>
      <trkpt lat="41.599248000" lon="1.942421000">
        <ele>501.30</ele>
        <time>2011-04-10T12:29:30Z</time>
      </trkpt>
      <trkpt lat="41.599070000" lon="1.942539000">
        <ele>502.90</ele>
        <time>2011-04-10T12:29:33Z</time>
      </trkpt>
      <trkpt lat="41.598565000" lon="1.942726000">
        <ele>510.80</ele>
        <time>2011-04-10T12:29:53Z</time>
      </trkpt>
      <trkpt lat="41.598419000" lon="1.942899000">
        <ele>513.50</ele>
        <time>2011-04-10T12:30:01Z</time>
      </trkpt>
      <trkpt lat="41.598232000" lon="1.943340000">
        <ele>516.20</ele>
        <time>2011-04-10T12:30:17Z</time>
      </trkpt>
      <trkpt lat="41.597932000" lon="1.943682000">
        <ele>518.70</ele>
        <time>2011-04-10T12:30:33Z</time>
      </trkpt>
      <trkpt lat="41.597518000" lon="1.943707000">
        <ele>516.30</ele>
        <time>2011-04-10T12:30:41Z</time>
      </trkpt>
      <trkpt lat="41.597135000" lon="1.943598000">
        <ele>516.90</ele>
        <time>2011-04-10T12:30:48Z</time>
      </trkpt>
      <trkpt lat="41.596948000" lon="1.943542000">
        <ele>516.10</ele>
        <time>2011-04-10T12:30:52Z</time>
      </trkpt>
      <trkpt lat="41.596548000" lon="1.943528000">
        <ele>515.10</ele>
        <time>2011-04-10T12:30:59Z</time>
      </trkpt>
      <trkpt lat="41.596360000" lon="1.943529000">
        <ele>516.50</ele>
        <time>2011-04-10T12:31:02Z</time>
      </trkpt>
      <trkpt lat="41.595775000" lon="1.943727000">
        <ele>520.40</ele>
        <time>2011-04-10T12:31:16Z</time>
      </trkpt>
      <trkpt lat="41.595191000" lon="1.943475000">
        <ele>517.80</ele>
        <time>2011-04-10T12:31:30Z</time>
      </trkpt>
      <trkpt lat="41.595001000" lon="1.943397000">
        <ele>518.50</ele>
        <time>2011-04-10T12:31:34Z</time>
      </trkpt>
      <trkpt lat="41.594986000" lon="1.942884000">
        <ele>519.90</ele>
        <time>2011-04-10T12:31:46Z</time>
      </trkpt>
      <trkpt lat="41.595124000" lon="1.942162000">
        <ele>518.30</ele>
        <time>2011-04-10T12:32:45Z</time>
      </trkpt>
      <trkpt lat="41.595239000" lon="1.941916000">
        <ele>516.80</ele>
        <time>2011-04-10T12:32:50Z</time>
      </trkpt>
      <trkpt lat="41.595327000" lon="1.941658000">
        <ele>517.40</ele>
        <time>2011-04-10T12:32:54Z</time>
      </trkpt>
      <trkpt lat="41.595532000" lon="1.940854000">
        <ele>508.10</ele>
        <time>2011-04-10T12:33:02Z</time>
      </trkpt>
      <trkpt lat="41.595696000" lon="1.940392000">
        <ele>500.10</ele>
        <time>2011-04-10T12:33:09Z</time>
      </trkpt>
      <trkpt lat="41.595248000" lon="1.940367000">
        <ele>492.90</ele>
        <time>2011-04-10T12:33:18Z</time>
      </trkpt>
      <trkpt lat="41.594890000" lon="1.940320000">
        <ele>493.00</ele>
        <time>2011-04-10T12:33:23Z</time>
      </trkpt>
      <trkpt lat="41.594799000" lon="1.940005000">
        <ele>483.20</ele>
        <time>2011-04-10T12:33:27Z</time>
      </trkpt>
      <trkpt lat="41.594809000" lon="1.939528000">
        <ele>481.90</ele>
        <time>2011-04-10T12:33:32Z</time>
      </trkpt>
      <trkpt lat="41.594839000" lon="1.939130000">
        <ele>476.00</ele>
        <time>2011-04-10T12:33:34Z</time>
      </trkpt>
      <trkpt lat="41.595044000" lon="1.938413000">
        <ele>473.50</ele>
        <time>2011-04-10T12:33:41Z</time>
      </trkpt>
      <trkpt lat="41.595282000" lon="1.937701000">
        <ele>468.20</ele>
        <time>2011-04-10T12:33:46Z</time>
      </trkpt>
      <trkpt lat="41.595634000" lon="1.936925000">
        <ele>458.50</ele>
        <time>2011-04-10T12:33:55Z</time>
      </trkpt>
      <trkpt lat="41.595995000" lon="1.935923000">
        <ele>449.60</ele>
        <time>2011-04-10T12:34:02Z</time>
      </trkpt>
      <trkpt lat="41.596089000" lon="1.935688000">
        <ele>448.60</ele>
        <time>2011-04-10T12:34:05Z</time>
      </trkpt>
      <trkpt lat="41.596435000" lon="1.935229000">
        <ele>447.00</ele>
        <time>2011-04-10T12:34:10Z</time>
      </trkpt>
      <trkpt lat="41.596668000" lon="1.934728000">
        <ele>442.70</ele>
        <time>2011-04-10T12:34:17Z</time>
      </trkpt>
      <trkpt lat="41.596720000" lon="1.933656000">
        <ele>426.50</ele>
        <time>2011-04-10T12:34:36Z</time>
      </trkpt>
      <trkpt lat="41.596731000" lon="1.933357000">
        <ele>423.60</ele>
        <time>2011-04-10T12:34:42Z</time>
      </trkpt>
      <trkpt lat="41.596731000" lon="1.933070000">
        <ele>421.00</ele>
        <time>2011-04-10T12:34:45Z</time>
      </trkpt>
      <trkpt lat="41.596512000" lon="1.932168000">
        <ele>415.10</ele>
        <time>2011-04-10T12:34:56Z</time>
      </trkpt>
      <trkpt lat="41.596411000" lon="1.931167000">
        <ele>412.40</ele>
        <time>2011-04-10T12:35:04Z</time>
      </trkpt>
      <trkpt lat="41.596342000" lon="1.930886000">
        <ele>410.80</ele>
        <time>2011-04-10T12:35:08Z</time>
      </trkpt>
      <trkpt lat="41.595952000" lon="1.930184000">
        <ele>405.50</ele>
        <time>2011-04-10T12:35:18Z</time>
      </trkpt>
      <trkpt lat="41.595568000" lon="1.928879000">
        <ele>391.30</ele>
        <time>2011-04-10T12:35:32Z</time>
      </trkpt>
      <trkpt lat="41.594790000" lon="1.928374000">
        <ele>385.20</ele>
        <time>2011-04-10T12:35:43Z</time>
      </trkpt>
      <trkpt lat="41.594763000" lon="1.928221000">
        <ele>381.70</ele>
        <time>2011-04-10T12:35:51Z</time>
      </trkpt>
      <trkpt lat="41.594931000" lon="1.928340000">
        <ele>380.30</ele>
        <time>2011-04-10T12:35:58Z</time>
      </trkpt>
      <trkpt lat="41.595135000" lon="1.928276000">
        <ele>377.90</ele>
        <time>2011-04-10T12:36:02Z</time>
      </trkpt>
      <trkpt lat="41.595326000" lon="1.928178000">
        <ele>375.10</ele>
        <time>2011-04-10T12:36:09Z</time>
      </trkpt>
      <trkpt lat="41.595526000" lon="1.928222000">
        <ele>370.90</ele>
        <time>2011-04-10T12:36:12Z</time>
      </trkpt>
      <trkpt lat="41.596131000" lon="1.928610000">
        <ele>361.80</ele>
        <time>2011-04-10T12:36:21Z</time>
      </trkpt>
      <trkpt lat="41.596504000" lon="1.928648000">
        <ele>360.20</ele>
        <time>2011-04-10T12:36:26Z</time>
      </trkpt>
      <trkpt lat="41.596547000" lon="1.928466000">
        <ele>360.30</ele>
        <time>2011-04-10T12:36:30Z</time>
      </trkpt>
      <trkpt lat="41.596477000" lon="1.927640000">
        <ele>360.50</ele>
        <time>2011-04-10T12:36:42Z</time>
      </trkpt>
      <trkpt lat="41.596093000" lon="1.926337000">
        <ele>360.90</ele>
        <time>2011-04-10T12:37:05Z</time>
      </trkpt>
      <trkpt lat="41.595498000" lon="1.925795000">
        <ele>361.20</ele>
        <time>2011-04-10T12:37:20Z</time>
      </trkpt>
      <trkpt lat="41.595126000" lon="1.925870000">
        <ele>361.30</ele>
        <time>2011-04-10T12:37:27Z</time>
      </trkpt>
      <trkpt lat="41.594735000" lon="1.926180000">
        <ele>361.50</ele>
        <time>2011-04-10T12:37:38Z</time>
      </trkpt>
      <trkpt lat="41.594402000" lon="1.925993000">
        <ele>361.60</ele>
        <time>2011-04-10T12:37:46Z</time>
      </trkpt>
      <trkpt lat="41.594339000" lon="1.925883000">
        <ele>361.60</ele>
        <time>2011-04-10T12:37:48Z</time>
      </trkpt>
      <trkpt lat="41.594369000" lon="1.925745000">
        <ele>361.60</ele>
        <time>2011-04-10T12:37:50Z</time>
      </trkpt>
      <trkpt lat="41.594834000" lon="1.925682000">
        <ele>361.70</ele>
        <time>2011-04-10T12:38:00Z</time>
      </trkpt>
      <trkpt lat="41.595101000" lon="1.925388000">
        <ele>361.80</ele>
        <time>2011-04-10T12:38:07Z</time>
      </trkpt>
      <trkpt lat="41.595180000" lon="1.925028000">
        <ele>361.90</ele>
        <time>2011-04-10T12:38:12Z</time>
      </trkpt>
      <trkpt lat="41.594654000" lon="1.925271000">
        <ele>361.90</ele>
        <time>2011-04-10T12:38:25Z</time>
      </trkpt>
      <trkpt lat="41.594479000" lon="1.925302000">
        <ele>362.00</ele>
        <time>2011-04-10T12:38:28Z</time>
      </trkpt>
      <trkpt lat="41.594281000" lon="1.925195000">
        <ele>362.00</ele>
        <time>2011-04-10T12:38:33Z</time>
      </trkpt>
      <trkpt lat="41.594134000" lon="1.924949000">
        <ele>362.00</ele>
        <time>2011-04-10T12:38:37Z</time>
      </trkpt>
      <trkpt lat="41.593875000" lon="1.924885000">
        <ele>362.00</ele>
        <time>2011-04-10T12:38:44Z</time>
      </trkpt>
      <trkpt lat="41.593528000" lon="1.924339000">
        <ele>362.10</ele>
        <time>2011-04-10T12:38:54Z</time>
      </trkpt>
      <trkpt lat="41.593376000" lon="1.923743000">
        <ele>362.20</ele>
        <time>2011-04-10T12:39:05Z</time>
      </trkpt>
      <trkpt lat="41.592827000" lon="1.923459000">
        <ele>363.00</ele>
        <time>2011-04-10T12:39:24Z</time>
      </trkpt>
      <trkpt lat="41.592733000" lon="1.923214000">
        <ele>362.70</ele>
        <time>2011-04-10T12:39:29Z</time>
      </trkpt>
      <trkpt lat="41.592196000" lon="1.923016000">
        <ele>364.70</ele>
        <time>2011-04-10T12:39:41Z</time>
      </trkpt>
      <trkpt lat="41.592037000" lon="1.922873000">
        <ele>365.00</ele>
        <time>2011-04-10T12:39:50Z</time>
      </trkpt>
      <trkpt lat="41.591866000" lon="1.922782000">
        <ele>363.80</ele>
        <time>2011-04-10T12:40:11Z</time>
      </trkpt>
      <trkpt lat="41.591219000" lon="1.922882000">
        <ele>358.50</ele>
        <time>2011-04-10T12:40:23Z</time>
      </trkpt>
      <trkpt lat="41.590721000" lon="1.922803000">
        <ele>354.80</ele>
        <time>2011-04-10T12:40:28Z</time>
      </trkpt>
      <trkpt lat="41.590537000" lon="1.922776000">
        <ele>354.40</ele>
        <time>2011-04-10T12:40:30Z</time>
      </trkpt>
      <trkpt lat="41.589557000" lon="1.922839000">
        <ele>348.00</ele>
        <time>2011-04-10T12:40:41Z</time>
      </trkpt>
      <trkpt lat="41.589034000" lon="1.923161000">
        <ele>345.30</ele>
        <time>2011-04-10T12:40:46Z</time>
      </trkpt>
      <trkpt lat="41.588641000" lon="1.923194000">
        <ele>342.60</ele>
        <time>2011-04-10T12:40:51Z</time>
      </trkpt>
      <trkpt lat="41.587617000" lon="1.922715000">
        <ele>335.60</ele>
        <time>2011-04-10T12:41:00Z</time>
      </trkpt>
      <trkpt lat="41.587400000" lon="1.922620000">
        <ele>334.90</ele>
        <time>2011-04-10T12:41:03Z</time>
      </trkpt>
      <trkpt lat="41.586973000" lon="1.922549000">
        <ele>333.10</ele>
        <time>2011-04-10T12:41:07Z</time>
      </trkpt>
      <trkpt lat="41.586533000" lon="1.922489000">
        <ele>328.10</ele>
        <time>2011-04-10T12:41:10Z</time>
      </trkpt>
      <trkpt lat="41.586310000" lon="1.922424000">
        <ele>326.30</ele>
        <time>2011-04-10T12:41:12Z</time>
      </trkpt>
      <trkpt lat="41.585625000" lon="1.922067000">
        <ele>321.30</ele>
        <time>2011-04-10T12:41:19Z</time>
      </trkpt>
      <trkpt lat="41.584990000" lon="1.921792000">
        <ele>320.80</ele>
        <time>2011-04-10T12:41:24Z</time>
      </trkpt>
      <trkpt lat="41.584591000" lon="1.921722000">
        <ele>322.50</ele>
        <time>2011-04-10T12:41:29Z</time>
      </trkpt>
      <trkpt lat="41.583958000" lon="1.921809000">
        <ele>324.50</ele>
        <time>2011-04-10T12:41:40Z</time>
      </trkpt>
      <trkpt lat="41.583775000" lon="1.921767000">
        <ele>325.80</ele>
        <time>2011-04-10T12:41:43Z</time>
      </trkpt>
      <trkpt lat="41.583409000" lon="1.921394000">
        <ele>326.40</ele>
        <time>2011-04-10T12:41:52Z</time>
      </trkpt>
      <trkpt lat="41.583242000" lon="1.921283000">
        <ele>325.80</ele>
        <time>2011-04-10T12:41:54Z</time>
      </trkpt>
      <trkpt lat="41.583037000" lon="1.921236000">
        <ele>325.10</ele>
        <time>2011-04-10T12:41:57Z</time>
      </trkpt>
      <trkpt lat="41.582816000" lon="1.921290000">
        <ele>324.90</ele>
        <time>2011-04-10T12:42:01Z</time>
      </trkpt>
      <trkpt lat="41.582123000" lon="1.921454000">
        <ele>320.80</ele>
        <time>2011-04-10T12:42:09Z</time>
      </trkpt>
      <trkpt lat="41.581869000" lon="1.921350000">
        <ele>319.40</ele>
        <time>2011-04-10T12:42:13Z</time>
      </trkpt>
      <trkpt lat="41.581514000" lon="1.921047000">
        <ele>316.30</ele>
        <time>2011-04-10T12:42:18Z</time>
      </trkpt>
      <trkpt lat="41.580785000" lon="1.920422000">
        <ele>311.90</ele>
        <time>2011-04-10T12:42:34Z</time>
      </trkpt>
      <trkpt lat="41.580116000" lon="1.920121000">
        <ele>309.10</ele>
        <time>2011-04-10T12:42:42Z</time>
      </trkpt>
      <trkpt lat="41.579692000" lon="1.920121000">
        <ele>308.80</ele>
        <time>2011-04-10T12:42:48Z</time>
      </trkpt>
      <trkpt lat="41.579087000" lon="1.920258000">
        <ele>307.60</ele>
        <time>2011-04-10T12:42:58Z</time>
      </trkpt>
      <trkpt lat="41.577934000" lon="1.920155000">
        <ele>306.30</ele>
        <time>2011-04-10T12:43:16Z</time>
      </trkpt>
      <trkpt lat="41.577744000" lon="1.920077000">
        <ele>305.90</ele>
        <time>2011-04-10T12:43:19Z</time>
      </trkpt>
      <trkpt lat="41.577151000" lon="1.919642000">
        <ele>303.10</ele>
        <time>2011-04-10T12:43:28Z</time>
      </trkpt>
      <trkpt lat="41.577006000" lon="1.919489000">
        <ele>302.10</ele>
        <time>2011-04-10T12:43:31Z</time>
      </trkpt>
      <trkpt lat="41.576847000" lon="1.919060000">
        <ele>302.30</ele>
        <time>2011-04-10T12:44:15Z</time>
      </trkpt>
      <trkpt lat="41.576259000" lon="1.918745000">
        <ele>302.50</ele>
        <time>2011-04-10T12:45:35Z</time>
      </trkpt>
      <trkpt lat="41.576107000" lon="1.917292000">
        <ele>303.00</ele>
        <time>2011-04-10T12:47:54Z</time>
      </trkpt>
      <trkpt lat="41.576112000" lon="1.917094000">
        <ele>303.00</ele>
        <time>2011-04-10T12:48:13Z</time>
      </trkpt>
      <trkpt lat="41.576294000" lon="1.915786000">
        <ele>306.60</ele>
        <time>2011-04-10T12:48:50Z</time>
      </trkpt>
      <trkpt lat="41.576243000" lon="1.915546000">
        <ele>307.90</ele>
        <time>2011-04-10T12:48:57Z</time>
      </trkpt>
      <trkpt lat="41.576099000" lon="1.915488000">
        <ele>311.10</ele>
        <time>2011-04-10T12:49:07Z</time>
      </trkpt>
      <trkpt lat="41.575855000" lon="1.915844000">
        <ele>316.00</ele>
        <time>2011-04-10T12:49:28Z</time>
      </trkpt>
      <trkpt lat="41.575815000" lon="1.915630000">
        <ele>317.60</ele>
        <time>2011-04-10T12:49:37Z</time>
      </trkpt>
      <trkpt lat="41.575735000" lon="1.914240000">
        <ele>318.30</ele>
        <time>2011-04-10T12:50:31Z</time>
      </trkpt>
      <trkpt lat="41.575495000" lon="1.913403000">
        <ele>318.80</ele>
        <time>2011-04-10T12:51:06Z</time>
      </trkpt>
      <trkpt lat="41.575459000" lon="1.912500000">
        <ele>319.20</ele>
        <time>2011-04-10T12:51:41Z</time>
      </trkpt>
      <trkpt lat="41.575548000" lon="1.912078000">
        <ele>319.50</ele>
        <time>2011-04-10T12:51:58Z</time>
      </trkpt>
      <trkpt lat="41.575539000" lon="1.911151000">
        <ele>319.90</ele>
        <time>2011-04-10T12:52:35Z</time>
      </trkpt>
      <trkpt lat="41.575333000" lon="1.910555000">
        <ele>320.20</ele>
        <time>2011-04-10T12:52:59Z</time>
      </trkpt>
      <trkpt lat="41.575410000" lon="1.910281000">
        <ele>320.30</ele>
        <time>2011-04-10T12:53:11Z</time>
      </trkpt>
      <trkpt lat="41.575469000" lon="1.910300000">
        <ele>320.40</ele>
        <time>2011-04-10T12:53:22Z</time>
      </trkpt>
      <trkpt lat="41.575611000" lon="1.910152000">
        <ele>332.60</ele>
        <time>2011-04-10T12:53:34Z</time>
      </trkpt>
      <trkpt lat="41.575607000" lon="1.909908000">
        <ele>348.40</ele>
        <time>2011-04-10T12:53:48Z</time>
      </trkpt>
      <trkpt lat="41.575311000" lon="1.909611000">
        <ele>369.60</ele>
        <time>2011-04-10T12:54:14Z</time>
      </trkpt>
      <trkpt lat="41.575224000" lon="1.909388000">
        <ele>377.40</ele>
        <time>2011-04-10T12:54:28Z</time>
      </trkpt>
      <trkpt lat="41.575150000" lon="1.908904000">
        <ele>382.50</ele>
        <time>2011-04-10T12:54:49Z</time>
      </trkpt>
      <trkpt lat="41.575081000" lon="1.908640000">
        <ele>383.10</ele>
        <time>2011-04-10T12:54:56Z</time>
      </trkpt>
      <trkpt lat="41.575017000" lon="1.908476000">
        <ele>383.10</ele>
        <time>2011-04-10T12:54:56Z</time>
      </trkpt>
      <trkpt lat="41.575020000" lon="1.908334000">
        <ele>383.10</ele>
        <time>2011-04-10T12:54:56Z</time>
      </trkpt>
      <trkpt lat="41.575232000" lon="1.908265000">
        <ele>383.10</ele>
        <time>2011-04-10T12:54:56Z</time>
      </trkpt>
      <trkpt lat="41.575293000" lon="1.908134000">
        <ele>383.10</ele>
        <time>2011-04-10T12:54:56Z</time>
      </trkpt>
      <trkpt lat="41.575291000" lon="1.906049000">
        <ele>383.10</ele>
        <time>2011-04-10T12:54:56Z</time>
      </trkpt>
      <trkpt lat="41.575463000" lon="1.904988000">
        <ele>383.10</ele>
        <time>2011-04-10T12:54:56Z</time>
      </trkpt>
      <trkpt lat="41.575219000" lon="1.903598000">
        <ele>383.10</ele>
        <time>2011-04-10T12:54:56Z</time>
      </trkpt>
      <trkpt lat="41.575235000" lon="1.903450000">
        <ele>383.10</ele>
        <time>2011-04-10T12:54:56Z</time>
      </trkpt>
      <trkpt lat="41.575568000" lon="1.902972000">
        <ele>383.10</ele>
        <time>2011-04-10T12:54:56Z</time>
      </trkpt>
      <trkpt lat="41.575769000" lon="1.902254000">
        <ele>383.10</ele>
        <time>2011-04-10T12:54:56Z</time>
      </trkpt>
      <trkpt lat="41.575708000" lon="1.901829000">
        <ele>383.10</ele>
        <time>2011-04-10T12:54:56Z</time>
      </trkpt>
      <trkpt lat="41.575501000" lon="1.901591000">
        <ele>383.10</ele>
        <time>2011-04-10T12:54:56Z</time>
      </trkpt>
      <trkpt lat="41.575540000" lon="1.901466000">
        <ele>383.10</ele>
        <time>2011-04-10T12:54:56Z</time>
      </trkpt>
      <trkpt lat="41.575810000" lon="1.901420000">
        <ele>383.10</ele>
        <time>2011-04-10T12:54:56Z</time>
      </trkpt>
      <trkpt lat="41.575938000" lon="1.901294000">
        <ele>383.10</ele>
        <time>2011-04-10T12:54:56Z</time>
      </trkpt>
      <trkpt lat="41.576133000" lon="1.900422000">
        <ele>383.10</ele>
        <time>2011-04-10T12:54:56Z</time>
      </trkpt>
      <trkpt lat="41.576590000" lon="1.899020000">
        <ele>383.10</ele>
        <time>2011-04-10T12:54:56Z</time>
      </trkpt>
      <trkpt lat="41.576808000" lon="1.898633000">
        <ele>383.10</ele>
        <time>2011-04-10T12:54:56Z</time>
      </trkpt>
      <trkpt lat="41.577045000" lon="1.898732000">
        <ele>383.10</ele>
        <time>2011-04-10T12:54:56Z</time>
      </trkpt>
      <trkpt lat="41.577204000" lon="1.897656000">
        <ele>383.10</ele>
        <time>2011-04-10T12:54:56Z</time>
      </trkpt>
      <trkpt lat="41.577150000" lon="1.897376000">
        <ele>383.10</ele>
        <time>2011-04-10T12:54:56Z</time>
      </trkpt>
      <trkpt lat="41.576826000" lon="1.896753000">
        <ele>383.10</ele>
        <time>2011-04-10T12:54:56Z</time>
      </trkpt>
      <trkpt lat="41.576556000" lon="1.896491000">
        <ele>383.10</ele>
        <time>2011-04-10T12:54:56Z</time>
      </trkpt>
      <trkpt lat="41.576326000" lon="1.896509000">
        <ele>383.10</ele>
        <time>2011-04-10T12:54:56Z</time>
      </trkpt>
      <trkpt lat="41.575765000" lon="1.896347000">
        <ele>383.10</ele>
        <time>2011-04-10T12:54:56Z</time>
      </trkpt>
      <trkpt lat="41.575026000" lon="1.896380000">
        <ele>383.10</ele>
        <time>2011-04-10T12:54:56Z</time>
      </trkpt>
      <trkpt lat="41.574830000" lon="1.896315000">
        <ele>383.10</ele>
        <time>2011-04-10T12:54:56Z</time>
      </trkpt>
      <trkpt lat="41.574441000" lon="1.895891000">
        <ele>383.10</ele>
        <time>2011-04-10T12:54:56Z</time>
      </trkpt>
      <trkpt lat="41.574234000" lon="1.895157000">
        <ele>383.10</ele>
        <time>2011-04-10T12:54:56Z</time>
      </trkpt>
      <trkpt lat="41.573471000" lon="1.893283000">
        <ele>383.10</ele>
        <time>2011-04-10T12:54:56Z</time>
      </trkpt>
      <trkpt lat="41.573897000" lon="1.892182000">
        <ele>383.10</ele>
        <time>2011-04-10T12:54:56Z</time>
      </trkpt>
      <trkpt lat="41.573857000" lon="1.890686000">
        <ele>383.10</ele>
        <time>2011-04-10T12:54:56Z</time>
      </trkpt>
      <trkpt lat="41.573723000" lon="1.890606000">
        <ele>383.10</ele>
        <time>2011-04-10T12:54:56Z</time>
      </trkpt>
      <trkpt lat="41.573642000" lon="1.890758000">
        <ele>383.10</ele>
        <time>2011-04-10T12:54:56Z</time>
      </trkpt>
      <trkpt lat="41.573674000" lon="1.890874000">
        <ele>383.10</ele>
        <time>2011-04-10T12:54:56Z</time>
      </trkpt>
      <trkpt lat="41.573420000" lon="1.891097000">
        <ele>383.10</ele>
        <time>2011-04-10T12:54:56Z</time>
      </trkpt>
      <trkpt lat="41.573101000" lon="1.891020000">
        <ele>383.10</ele>
        <time>2011-04-10T12:54:56Z</time>
      </trkpt>
      <trkpt lat="41.572691000" lon="1.891150000">
        <ele>383.10</ele>
        <time>2011-04-10T12:54:56Z</time>
      </trkpt>
      <trkpt lat="41.572321000" lon="1.891047000">
        <ele>383.10</ele>
        <time>2011-04-10T12:54:56Z</time>
      </trkpt>
      <trkpt lat="41.571946000" lon="1.890534000">
        <ele>383.10</ele>
        <time>2011-04-10T12:54:56Z</time>
      </trkpt>
      <trkpt lat="41.572165000" lon="1.891371000">
        <ele>383.10</ele>
        <time>2011-04-10T12:54:56Z</time>
      </trkpt>
      <trkpt lat="41.572255000" lon="1.891462000">
        <ele>383.10</ele>
        <time>2011-04-10T12:54:56Z</time>
      </trkpt>
      <trkpt lat="41.572997000" lon="1.891702000">
        <ele>383.10</ele>
        <time>2011-04-10T12:54:56Z</time>
      </trkpt>
      <trkpt lat="41.573016000" lon="1.891876000">
        <ele>383.10</ele>
        <time>2011-04-10T12:54:56Z</time>
      </trkpt>
      <trkpt lat="41.572634000" lon="1.892533000">
        <ele>383.10</ele>
        <time>2011-04-10T12:54:56Z</time>
      </trkpt>
      <trkpt lat="41.572568000" lon="1.893038000">
        <ele>383.10</ele>
        <time>2011-04-10T12:54:56Z</time>
      </trkpt>
      <trkpt lat="41.572546000" lon="1.893688000">
        <ele>383.10</ele>
        <time>2011-04-10T12:54:56Z</time>
      </trkpt>
      <trkpt lat="41.572765000" lon="1.894579000">
        <ele>383.10</ele>
        <time>2011-04-10T12:54:56Z</time>
      </trkpt>
      <trkpt lat="41.572288000" lon="1.895101000">
        <ele>383.10</ele>
        <time>2011-04-10T12:54:56Z</time>
      </trkpt>
      <trkpt lat="41.572211000" lon="1.895044000">
        <ele>383.10</ele>
        <time>2011-04-10T12:54:56Z</time>
      </trkpt>
      <trkpt lat="41.571992000" lon="1.894231000">
        <ele>383.10</ele>
        <time>2011-04-10T12:54:56Z</time>
      </trkpt>
      <trkpt lat="41.571753000" lon="1.893900000">
        <ele>383.10</ele>
        <time>2011-04-10T12:54:56Z</time>
      </trkpt>
      <trkpt lat="41.571293000" lon="1.893635000">
        <ele>383.10</ele>
        <time>2011-04-10T12:54:56Z</time>
      </trkpt>
      <trkpt lat="41.570670000" lon="1.893515000">
        <ele>383.10</ele>
        <time>2011-04-10T12:54:56Z</time>
      </trkpt>
      <trkpt lat="41.570402000" lon="1.893329000">
        <ele>383.10</ele>
        <time>2011-04-10T12:54:56Z</time>
      </trkpt>
      <trkpt lat="41.570300000" lon="1.893383000">
        <ele>383.10</ele>
        <time>2011-04-10T12:54:56Z</time>
      </trkpt>
      <trkpt lat="41.569973000" lon="1.893022000">
        <ele>383.10</ele>
        <time>2011-04-10T12:54:56Z</time>
      </trkpt>
      <trkpt lat="41.569547000" lon="1.892933000">
        <ele>383.10</ele>
        <time>2011-04-10T12:54:56Z</time>
      </trkpt>
      <trkpt lat="41.569306000" lon="1.892999000">
        <ele>383.10</ele>
        <time>2011-04-10T12:54:56Z</time>
      </trkpt>
      <trkpt lat="41.569010000" lon="1.893229000">
        <ele>383.10</ele>
        <time>2011-04-10T12:54:56Z</time>
      </trkpt>
      <trkpt lat="41.568688000" lon="1.893711000">
        <ele>383.10</ele>
        <time>2011-04-10T12:54:56Z</time>
      </trkpt>
      <trkpt lat="41.568589000" lon="1.893742000">
        <ele>383.10</ele>
        <time>2011-04-10T12:54:56Z</time>
      </trkpt>
      <trkpt lat="41.568485000" lon="1.893580000">
        <ele>383.10</ele>
        <time>2011-04-10T12:54:56Z</time>
      </trkpt>
      <trkpt lat="41.568361000" lon="1.892981000">
        <ele>383.10</ele>
        <time>2011-04-10T12:54:56Z</time>
      </trkpt>
      <trkpt lat="41.568103000" lon="1.892760000">
        <ele>383.10</ele>
        <time>2011-04-10T12:54:56Z</time>
      </trkpt>
      <trkpt lat="41.567972000" lon="1.892767000">
        <ele>383.10</ele>
        <time>2011-04-10T12:54:56Z</time>
      </trkpt>
      <trkpt lat="41.567649000" lon="1.892596000">
        <ele>383.10</ele>
        <time>2011-04-10T12:54:56Z</time>
      </trkpt>
      <trkpt lat="41.566067000" lon="1.892678000">
        <ele>383.10</ele>
        <time>2011-04-10T12:54:56Z</time>
      </trkpt>
      <trkpt lat="41.565499000" lon="1.892434000">
        <ele>383.10</ele>
        <time>2011-04-10T12:54:56Z</time>
      </trkpt>
      <trkpt lat="41.565411000" lon="1.892546000">
        <ele>383.10</ele>
        <time>2011-04-10T12:54:56Z</time>
      </trkpt>
      <trkpt lat="41.565508000" lon="1.893372000">
        <ele>383.10</ele>
        <time>2011-04-10T12:54:56Z</time>
      </trkpt>
      <trkpt lat="41.565428000" lon="1.894117000">
        <ele>383.10</ele>
        <time>2011-04-10T12:54:56Z</time>
      </trkpt>
      <trkpt lat="41.565273000" lon="1.894109000">
        <ele>383.10</ele>
        <time>2011-04-10T12:54:56Z</time>
      </trkpt>
      <trkpt lat="41.564813000" lon="1.893861000">
        <ele>383.10</ele>
        <time>2011-04-10T12:54:56Z</time>
      </trkpt>
      <trkpt lat="41.564628000" lon="1.893892000">
        <ele>383.10</ele>
        <time>2011-04-10T12:54:56Z</time>
      </trkpt>
      <trkpt lat="41.564574000" lon="1.894036000">
        <ele>383.10</ele>
        <time>2011-04-10T12:54:56Z</time>
      </trkpt>
      <trkpt lat="41.564398000" lon="1.894031000">
        <ele>383.10</ele>
        <time>2011-04-10T12:54:56Z</time>
      </trkpt>
      <trkpt lat="41.564300000" lon="1.893918000">
        <ele>383.10</ele>
        <time>2011-04-10T12:54:56Z</time>
      </trkpt>
      <trkpt lat="41.564131000" lon="1.893989000">
        <ele>383.10</ele>
        <time>2011-04-10T12:54:56Z</time>
      </trkpt>
      <trkpt lat="41.563931000" lon="1.894306000">
        <ele>383.10</ele>
        <time>2011-04-10T12:54:56Z</time>
      </trkpt>
      <trkpt lat="41.563720000" lon="1.894434000">
        <ele>383.10</ele>
        <time>2011-04-10T12:54:56Z</time>
      </trkpt>
      <trkpt lat="41.563397000" lon="1.893641000">
        <ele>383.10</ele>
        <time>2011-04-10T12:54:56Z</time>
      </trkpt>
      <trkpt lat="41.563221000" lon="1.893705000">
        <ele>383.10</ele>
        <time>2011-04-10T12:54:56Z</time>
      </trkpt>
      <trkpt lat="41.563053000" lon="1.894147000">
        <ele>383.10</ele>
        <time>2011-04-10T12:54:56Z</time>
      </trkpt>
      <trkpt lat="41.562362000" lon="1.893582000">
        <ele>383.10</ele>
        <time>2011-04-10T12:54:56Z</time>
      </trkpt>
      <trkpt lat="41.561935000" lon="1.893487000">
        <ele>383.10</ele>
        <time>2011-04-10T12:54:56Z</time>
      </trkpt>
      <trkpt lat="41.561587000" lon="1.893575000">
        <ele>383.10</ele>
        <time>2011-04-10T12:54:56Z</time>
      </trkpt>
      <trkpt lat="41.561381000" lon="1.893933000">
        <ele>383.10</ele>
        <time>2011-04-10T12:54:56Z</time>
      </trkpt>
      <trkpt lat="41.561015000" lon="1.893426000">
        <ele>383.10</ele>
        <time>2011-04-10T12:54:56Z</time>
      </trkpt>
      <trkpt lat="41.560866000" lon="1.893341000">
        <ele>383.10</ele>
        <time>2011-04-10T12:54:56Z</time>
      </trkpt>
      <trkpt lat="41.560540000" lon="1.893627000">
        <ele>383.10</ele>
        <time>2011-04-10T12:54:56Z</time>
      </trkpt>
      <trkpt lat="41.560441000" lon="1.894038000">
        <ele>383.10</ele>
        <time>2011-04-10T12:54:56Z</time>
      </trkpt>
      <trkpt lat="41.560178000" lon="1.894052000">
        <ele>383.10</ele>
        <time>2011-04-10T12:54:56Z</time>
      </trkpt>
      <trkpt lat="41.559911000" lon="1.893344000">
        <ele>383.10</ele>
        <time>2011-04-10T12:54:56Z</time>
      </trkpt>
      <trkpt lat="41.559410000" lon="1.893216000">
        <ele>383.10</ele>
        <time>2011-04-10T12:54:56Z</time>
      </trkpt>
      <trkpt lat="41.558916000" lon="1.892869000">
        <ele>383.10</ele>
        <time>2011-04-10T12:54:56Z</time>
      </trkpt>
      <trkpt lat="41.558747000" lon="1.892974000">
        <ele>383.10</ele>
        <time>2011-04-10T12:54:56Z</time>
      </trkpt>
      <trkpt lat="41.558347000" lon="1.892860000">
        <ele>383.10</ele>
        <time>2011-04-10T12:54:56Z</time>
      </trkpt>
      <trkpt lat="41.558097000" lon="1.892486000">
        <ele>383.10</ele>
        <time>2011-04-10T12:54:56Z</time>
      </trkpt>
      <trkpt lat="41.557864000" lon="1.891827000">
        <ele>383.10</ele>
        <time>2011-04-10T12:54:56Z</time>
      </trkpt>
      <trkpt lat="41.556681000" lon="1.891569000">
        <ele>383.10</ele>
        <time>2011-04-10T12:54:56Z</time>
      </trkpt>
      <trkpt lat="41.556652000" lon="1.890741000">
        <ele>383.10</ele>
        <time>2011-04-10T12:54:56Z</time>
      </trkpt>
      <trkpt lat="41.555557000" lon="1.890877000">
        <ele>383.10</ele>
        <time>2011-04-10T12:54:56Z</time>
      </trkpt>
      <trkpt lat="41.554960000" lon="1.890778000">
        <ele>383.10</ele>
        <time>2011-04-10T12:54:56Z</time>
      </trkpt>
      <trkpt lat="41.553845000" lon="1.890762000">
        <ele>383.10</ele>
        <time>2011-04-10T12:54:56Z</time>
      </trkpt>
      <trkpt lat="41.552128000" lon="1.889978000">
        <ele>383.10</ele>
        <time>2011-04-10T12:54:56Z</time>
      </trkpt>
      <trkpt lat="41.551742000" lon="1.889882000">
        <ele>383.10</ele>
        <time>2011-04-10T12:54:56Z</time>
      </trkpt>
      <trkpt lat="41.551350000" lon="1.889697000">
        <ele>383.10</ele>
        <time>2011-04-10T12:54:56Z</time>
      </trkpt>
      <trkpt lat="41.551611000" lon="1.888524000">
        <ele>383.10</ele>
        <time>2011-04-10T12:54:56Z</time>
      </trkpt>
      <trkpt lat="41.550819000" lon="1.888184000">
        <ele>383.10</ele>
        <time>2011-04-10T12:54:56Z</time>
      </trkpt>
      <trkpt lat="41.550203000" lon="1.887797000">
        <ele>383.10</ele>
        <time>2011-04-10T12:54:56Z</time>
      </trkpt>
      <trkpt lat="41.549607000" lon="1.887759000">
        <ele>383.10</ele>
        <time>2011-04-10T12:54:56Z</time>
      </trkpt>
      <trkpt lat="41.549321000" lon="1.887864000">
        <ele>383.10</ele>
        <time>2011-04-10T12:54:56Z</time>
      </trkpt>
      <trkpt lat="41.548997000" lon="1.887845000">
        <ele>383.10</ele>
        <time>2011-04-10T12:54:56Z</time>
      </trkpt>
      <trkpt lat="41.547527000" lon="1.888191000">
        <ele>383.10</ele>
        <time>2011-04-10T12:54:56Z</time>
      </trkpt>
      <trkpt lat="41.546305000" lon="1.888031000">
        <ele>383.10</ele>
        <time>2011-04-10T12:54:56Z</time>
      </trkpt>
      <trkpt lat="41.546092000" lon="1.887881000">
        <ele>383.10</ele>
        <time>2011-04-10T12:54:56Z</time>
      </trkpt>
      <trkpt lat="41.545747000" lon="1.887840000">
        <ele>383.10</ele>
        <time>2011-04-10T12:54:56Z</time>
      </trkpt>
      <trkpt lat="41.545000000" lon="1.887584000">
        <ele>383.10</ele>
        <time>2011-04-10T12:54:56Z</time>
      </trkpt>
      <trkpt lat="41.544448000" lon="1.887246000">
        <ele>383.10</ele>
        <time>2011-04-10T12:54:56Z</time>
      </trkpt>
      <trkpt lat="41.544493000" lon="1.887034000">
        <ele>383.10</ele>
        <time>2011-04-10T12:54:56Z</time>
      </trkpt>
      <trkpt lat="41.544877000" lon="1.886405000">
        <ele>383.10</ele>
        <time>2011-04-10T12:54:56Z</time>
      </trkpt>
      <trkpt lat="41.544818000" lon="1.886167000">
        <ele>383.10</ele>
        <time>2011-04-10T12:54:56Z</time>
      </trkpt>
      <trkpt lat="41.544715000" lon="1.886108000">
        <ele>383.10</ele>
        <time>2011-04-10T12:54:56Z</time>
      </trkpt>
      <trkpt lat="41.544688000" lon="1.886230000">
        <ele>104.70</ele>
        <time>2011-04-10T12:54:56Z</time>
      </trkpt>
    </trkseg>
  </trk>
</gpx>
